Observation data for Romero 11SSW on 01/18/2019      Previous  Date  Next       Current Mesonet Observations  Soil Data  Daily Summary Page  Observations in Plain Language
KBR1 180600Z 21007KT 05/M04 A2993 RMK A01 T00511040  RH  052%=      5-min Rain = 0
KBR1 180601Z 21007KT 05/M04 A2993 RMK A01 T00501040  RH  052%=      5-min Rain = 0
KBR1 180602Z 21007KT 05/M04 A2993 RMK A01 T00491040  RH  053%=      5-min Rain = 0
KBR1 180603Z 21007KT 05/M04 A2993 RMK A01 T00481039  RH  053%=      5-min Rain = 0
KBR1 180604Z 21007KT 05/M04 A2993 RMK A01 T00481038  RH  054%=      5-min Rain = 0
KBR1 180605Z 21007KT 05/M04 A2993 RMK A01 T00471038  RH  054%=      5-min Rain = 0
KBR1 180606Z 22007KT 05/M04 A2993 RMK A01 T00471038  RH  054%=      5-min Rain = 0
KBR1 180607Z 22007KT 05/M04 A2993 RMK A01 T00461038  RH  054%=      5-min Rain = 0
KBR1 180608Z 22007KT 05/M04 A2992 RMK A01 T00461038  RH  054%=      5-min Rain = 0
KBR1 180609Z 22007KT 05/M04 A2992 RMK A01 T00451039  RH  055%=      5-min Rain = 0
KBR1 180610Z 22007KT 04/M04 A2992 RMK A01 T00441039  RH  055%=      5-min Rain = 0
KBR1 180611Z 22007KT 04/M04 A2992 RMK A01 T00431039  RH  055%=      5-min Rain = 0
KBR1 180612Z 22007KT 04/M04 A2992 RMK A01 T00431039  RH  055%=      5-min Rain = 0
KBR1 180613Z 21007KT 04/M04 A2992 RMK A01 T00431039  RH  055%=      5-min Rain = 0
KBR1 180614Z 21008KT 04/M04 A2992 RMK A01 T00421039  RH  055%=      5-min Rain = 0
KBR1 180615Z 21008KT 04/M04 A2992 RMK A01 T00421039  RH  056%=      5-min Rain = 0
KBR1 180616Z 21008KT 04/M04 A2992 RMK A01 T00421039  RH  056%=      5-min Rain = 0
KBR1 180617Z 22008KT 04/M04 A2992 RMK A01 T00411038  RH  056%=      5-min Rain = 0
KBR1 180618Z 22008KT 04/M04 A2992 RMK A01 T00411038  RH  056%=      5-min Rain = 0
KBR1 180619Z 22007KT 04/M04 A2992 RMK A01 T00411038  RH  056%=      5-min Rain = 0
KBR1 180620Z 22007KT 04/M04 A2992 RMK A01 T00411038  RH  056%=      5-min Rain = 0
KBR1 180621Z 22007KT 04/M04 A2992 RMK A01 T00411038  RH  056%=      5-min Rain = 0
KBR1 180622Z 22006KT 04/M04 A2992 RMK A01 T00411038  RH  056%=      5-min Rain = 0
KBR1 180623Z 22006KT 04/M04 A2992 RMK A01 T00401039  RH  057%=      5-min Rain = 0
KBR1 180624Z 22005KT 04/M04 A2992 RMK A01 T00391039  RH  057%=      5-min Rain = 0
KBR1 180625Z 22006KT 04/M04 A2992 RMK A01 T00391039  RH  057%=      5-min Rain = 0
KBR1 180626Z 22006KT 04/M04 A2992 RMK A01 T00381039  RH  057%=      5-min Rain = 0
KBR1 180627Z 22007KT 04/M04 A2992 RMK A01 T00381039  RH  057%=      5-min Rain = 0
KBR1 180628Z 23007KT 04/M04 A2992 RMK A01 T00391039  RH  057%=      5-min Rain = 0
KBR1 180629Z 23007KT 04/M04 A2992 RMK A01 T00391039  RH  057%=      5-min Rain = 0
KBR1 180630Z 22006KT 04/M04 A2992 RMK A01 T00391038  RH  057%=      5-min Rain = 0
KBR1 180631Z 22006KT 04/M04 A2991 RMK A01 T00391038  RH  057%=      5-min Rain = 0
KBR1 180632Z 22007KT 04/M04 A2991 RMK A01 T00381038  RH  058%=      5-min Rain = 0
KBR1 180633Z 22008KT 04/M04 A2991 RMK A01 T00381038  RH  058%=      5-min Rain = 0
KBR1 180634Z 22008KT 04/M04 A2991 RMK A01 T00381038  RH  058%=      5-min Rain = 0
KBR1 180635Z 23008KT 04/M04 A2991 RMK A01 T00391038  RH  057%=      5-min Rain = 0
KBR1 180636Z 23008KT 04/M04 A2991 RMK A01 T00391038  RH  057%=      5-min Rain = 0
KBR1 180637Z 23008KT 04/M04 A2991 RMK A01 T00401038  RH  057%=      5-min Rain = 0
KBR1 180638Z 23008KT 04/M04 A2991 RMK A01 T00401037  RH  057%=      5-min Rain = 0
KBR1 180639Z 23008KT 04/M04 A2991 RMK A01 T00411037  RH  057%=      5-min Rain = 0
KBR1 180640Z 23008KT 04/M04 A2991 RMK A01 T00411037  RH  057%=      5-min Rain = 0
KBR1 180641Z 23008KT 04/M04 A2991 RMK A01 T00411037  RH  057%=      5-min Rain = 0
KBR1 180642Z 23008KT 04/M04 A2991 RMK A01 T00411037  RH  057%=      5-min Rain = 0
KBR1 180643Z 23008KT 04/M04 A299 RMK A01 T00411037  RH  057%=      5-min Rain = 0
KBR1 180644Z 23008KT 04/M04 A299 RMK A01 T00411037  RH  057%=      5-min Rain = 0
KBR1 180645Z 23008KT 04/M04 A299 RMK A01 T00421037  RH  056%=      5-min Rain = 0
KBR1 180646Z 23008KT 04/M04 A299 RMK A01 T00441037  RH  056%=      5-min Rain = 0
KBR1 180647Z 23009KT 05/M04 A299 RMK A01 T00461037  RH  055%=      5-min Rain = 0
KBR1 180648Z 23008KT 05/M04 A299 RMK A01 T00471037  RH  054%=      5-min Rain = 0
KBR1 180649Z 23008KT 05/M04 A299 RMK A01 T00481037  RH  054%=      5-min Rain = 0
KBR1 180650Z 23009KT 05/M04 A299 RMK A01 T00481037  RH  054%=      5-min Rain = 0
KBR1 180651Z 23008KT 05/M04 A299 RMK A01 T00491037  RH  054%=      5-min Rain = 0
KBR1 180652Z 23008KT 05/M04 A299 RMK A01 T00501038  RH  053%=      5-min Rain = 0
KBR1 180653Z 23008KT 05/M04 A299 RMK A01 T00511038  RH  053%=      5-min Rain = 0
KBR1 180654Z 23008KT 05/M04 A2989 RMK A01 T00521038  RH  052%=      5-min Rain = 0
KBR1 180655Z 23008KT 05/M04 A2989 RMK A01 T00531038  RH  052%=      5-min Rain = 0
KBR1 180656Z 23008KT 05/M04 A2989 RMK A01 T00531038  RH  052%=      5-min Rain = 0
KBR1 180657Z 23009KT 05/M04 A2989 RMK A01 T00541038  RH  051%=      5-min Rain = 0
KBR1 180658Z 23009KT 06/M04 A2989 RMK A01 T00561038  RH  051%=      5-min Rain = 0
KBR1 180659Z 24009KT 06/M04 A2989 RMK A01 T00581038  RH  050%=      5-min Rain = 0
KBR1 180700Z 24009KT 06/M04 A2989 RMK A01 T00591039  RH  049%=      5-min Rain = 0
KBR1 180701Z 23009KT 06/M04 A2989 RMK A01 T00601039  RH  049%=      5-min Rain = 0
KBR1 180702Z 24010KT 06/M04 A2989 RMK A01 T00611040  RH  048%=      5-min Rain = 0
KBR1 180703Z 23010KT 06/M04 A2989 RMK A01 T00631040  RH  048%=      5-min Rain = 0
KBR1 180704Z 24011KT 07/M04 A2989 RMK A01 T00651040  RH  047%=      5-min Rain = 0
KBR1 180705Z 23010KT 07/M04 A2989 RMK A01 T00661040  RH  047%=      5-min Rain = 0
KBR1 180706Z 23012KT 07/M04 A2988 RMK A01 T00671040  RH  046%=      5-min Rain = 0
KBR1 180707Z 23011KT 07/M04 A2988 RMK A01 T00691040  RH  046%=      5-min Rain = 0
KBR1 180708Z 23011KT 07/M04 A2988 RMK A01 T00691040  RH  046%=      5-min Rain = 0
KBR1 180709Z 23011KT 07/M04 A2988 RMK A01 T00701040  RH  046%=      5-min Rain = 0
KBR1 180710Z 23012KT 07/M04 A2988 RMK A01 T00711040  RH  045%=      5-min Rain = 0
KBR1 180711Z 23012KT 07/M04 A2988 RMK A01 T00711040  RH  045%=      5-min Rain = 0
KBR1 180712Z 23012KT 07/M04 A2988 RMK A01 T00721040  RH  045%=      5-min Rain = 0
KBR1 180713Z 23011KT 07/M04 A2988 RMK A01 T00721040  RH  045%=      5-min Rain = 0
KBR1 180714Z 23011KT 07/M04 A2988 RMK A01 T00721040  RH  045%=      5-min Rain = 0
KBR1 180715Z 23012KT 07/M04 A2988 RMK A01 T00721040  RH  045%=      5-min Rain = 0
KBR1 180716Z 23011KT 07/M04 A2988 RMK A01 T00721041  RH  045%=      5-min Rain = 0
KBR1 180717Z 23010KT 07/M04 A2988 RMK A01 T00711040  RH  045%=      5-min Rain = 0
KBR1 180718Z 23012KT 07/M04 A2988 RMK A01 T00701040  RH  045%=      5-min Rain = 0
KBR1 180719Z 23011KT 07/M04 A2988 RMK A01 T00701040  RH  045%=      5-min Rain = 0
KBR1 180720Z 23011KT 07/M04 A2988 RMK A01 T00711039  RH  045%=      5-min Rain = 0
KBR1 180721Z 23011KT 07/M04 A2988 RMK A01 T00721039  RH  045%=      5-min Rain = 0
KBR1 180722Z 22012KT 07/M04 A2988 RMK A01 T00731038  RH  045%=      5-min Rain = 0
KBR1 180723Z 23012KT 07/M04 A2988 RMK A01 T00741038  RH  045%=      5-min Rain = 0
KBR1 180724Z 23011KT 08/M04 A2988 RMK A01 T00751038  RH  045%=      5-min Rain = 0
KBR1 180725Z 23014KT 08/M04 A2988 RMK A01 T00751038  RH  045%=      5-min Rain = 0
KBR1 180726Z 23012KT 08/M04 A2987 RMK A01 T00761038  RH  044%=      5-min Rain = 0
KBR1 180727Z 23011KT 08/M04 A2987 RMK A01 T00771038  RH  044%=      5-min Rain = 0
KBR1 180728Z 23013KT 08/M04 A2987 RMK A01 T00771038  RH  044%=      5-min Rain = 0
KBR1 180729Z 23013KT 08/M04 A2987 RMK A01 T00781037  RH  044%=      5-min Rain = 0
KBR1 180730Z 23012KT 08/M04 A2987 RMK A01 T00791037  RH  044%=      5-min Rain = 0
KBR1 180731Z 23012KT 08/M04 A2987 RMK A01 T00791037  RH  044%=      5-min Rain = 0
KBR1 180732Z 23012KT 08/M04 A2986 RMK A01 T00791037  RH  044%=      5-min Rain = 0
KBR1 180733Z 23012KT 08/M04 A2986 RMK A01 T00791036  RH  044%=      5-min Rain = 0
KBR1 180734Z 23012KT 08/M04 A2986 RMK A01 T00791036  RH  044%=      5-min Rain = 0
KBR1 180735Z 23011KT 08/M04 A2986 RMK A01 T00781036  RH  044%=      5-min Rain = 0
KBR1 180736Z 23014KT 08/M04 A2986 RMK A01 T00781036  RH  044%=      5-min Rain = 0
KBR1 180737Z 23012KT 08/M04 A2986 RMK A01 T00781037  RH  044%=      5-min Rain = 0
KBR1 180738Z 23011KT 08/M04 A2986 RMK A01 T00781036  RH  044%=      5-min Rain = 0
KBR1 180739Z 23012KT 08/M04 A2986 RMK A01 T00771036  RH  045%=      5-min Rain = 0
KBR1 180740Z 22012KT 08/M04 A2986 RMK A01 T00761036  RH  045%=      5-min Rain = 0
KBR1 180741Z 22013KT 08/M04 A2986 RMK A01 T00761036  RH  045%=      5-min Rain = 0
KBR1 180742Z 22012KT 08/M04 A2985 RMK A01 T00761035  RH  045%=      5-min Rain = 0
KBR1 180743Z 21011KT 08/M04 A2985 RMK A01 T00751035  RH  045%=      5-min Rain = 0
KBR1 180744Z 21012KT 08/M04 A2985 RMK A01 T00751035  RH  045%=      5-min Rain = 0
KBR1 180745Z 21012KT 08/M04 A2985 RMK A01 T00751035  RH  045%=      5-min Rain = 0
KBR1 180746Z 21012KT 07/M04 A2985 RMK A01 T00741035  RH  046%=      5-min Rain = 0
KBR1 180747Z 21012KT 07/M04 A2985 RMK A01 T00741035  RH  046%=      5-min Rain = 0
KBR1 180748Z 22012KT 07/M04 A2985 RMK A01 T00741035  RH  046%=      5-min Rain = 0
KBR1 180749Z 21011KT 07/M03 A2985 RMK A01 T00731034  RH  046%=      5-min Rain = 0
KBR1 180750Z 22012KT 07/M03 A2985 RMK A01 T00731034  RH  047%=      5-min Rain = 0
KBR1 180751Z 22011KT 07/M03 A2985 RMK A01 T00731034  RH  047%=      5-min Rain = 0
KBR1 180752Z 22010KT 07/M03 A2985 RMK A01 T00721034  RH  047%=      5-min Rain = 0
KBR1 180753Z 23010KT 07/M03 A2985 RMK A01 T00721034  RH  047%=      5-min Rain = 0
KBR1 180754Z 22010KT 07/M03 A2985 RMK A01 T00711034  RH  047%=      5-min Rain = 0
KBR1 180755Z 22010KT 07/M03 A2984 RMK A01 T00711034  RH  047%=      5-min Rain = 0
KBR1 180756Z 22010KT 07/M03 A2984 RMK A01 T00701034  RH  048%=      5-min Rain = 0
KBR1 180757Z 22010KT 07/M03 A2984 RMK A01 T00701034  RH  047%=      5-min Rain = 0
KBR1 180758Z 22009KT 07/M03 A2984 RMK A01 T00701034  RH  048%=      5-min Rain = 0
KBR1 180759Z 22010KT 07/M03 A2984 RMK A01 T00691034  RH  048%=      5-min Rain = 0
KBR1 180800Z 21010KT 07/M03 A2984 RMK A01 T00691033  RH  048%=      5-min Rain = 0
KBR1 180801Z 22010KT 07/M03 A2984 RMK A01 T00681033  RH  048%=      5-min Rain = 0
KBR1 180802Z 22010KT 07/M03 A2984 RMK A01 T00681033  RH  048%=      5-min Rain = 0
KBR1 180803Z 22010KT 07/M03 A2984 RMK A01 T00691032  RH  049%=      5-min Rain = 0
KBR1 180804Z 22010KT 07/M03 A2984 RMK A01 T00691032  RH  049%=      5-min Rain = 0
KBR1 180805Z 22010KT 07/M03 A2984 RMK A01 T00681031  RH  049%=      5-min Rain = 0
KBR1 180806Z 22010KT 07/M03 A2984 RMK A01 T00681031  RH  049%=      5-min Rain = 0
KBR1 180807Z 22009KT 07/M03 A2984 RMK A01 T00691030  RH  049%=      5-min Rain = 0
KBR1 180808Z 22010KT 07/M03 A2984 RMK A01 T00691030  RH  049%=      5-min Rain = 0
KBR1 180809Z 22009KT 07/M03 A2984 RMK A01 T00691030  RH  049%=      5-min Rain = 0
KBR1 180810Z 22011KT 07/M03 A2984 RMK A01 T00701030  RH  049%=      5-min Rain = 0
KBR1 180811Z 22011G16KT 07/M03 A2984 RMK A01 T00711029  RH  049%=      5-min Rain = 0
KBR1 180812Z 23012KT 07/M03 A2984 RMK A01 T00741027  RH  049%=      5-min Rain = 0
KBR1 180813Z 22011KT 08/M03 A2983 RMK A01 T00751027  RH  048%=      5-min Rain = 0
KBR1 180814Z 22012G17KT 08/M03 A2984 RMK A01 T00761027  RH  048%=      5-min Rain = 0
KBR1 180815Z 23012KT 08/M03 A2984 RMK A01 T00771027  RH  048%=      5-min Rain = 0
KBR1 180816Z 23013KT 08/M03 A2983 RMK A01 T00781027  RH  048%=      5-min Rain = 0
KBR1 180817Z 22013KT 08/M03 A2983 RMK A01 T00781027  RH  048%=      5-min Rain = 0
KBR1 180818Z 23013KT 08/M03 A2983 RMK A01 T00781027  RH  048%=      5-min Rain = 0
KBR1 180819Z 23013KT 08/M03 A2983 RMK A01 T00781027  RH  047%=      5-min Rain = 0
KBR1 180820Z 23012KT 08/M03 A2983 RMK A01 T00781027  RH  048%=      5-min Rain = 0
KBR1 180821Z 23013KT 08/M03 A2983 RMK A01 T00771027  RH  048%=      5-min Rain = 0
KBR1 180822Z 22014KT 08/M03 A2983 RMK A01 T00771027  RH  048%=      5-min Rain = 0
KBR1 180823Z 22011KT 08/M03 A2983 RMK A01 T00781026  RH  048%=      5-min Rain = 0
KBR1 180824Z 23012KT 08/M03 A2983 RMK A01 T00791026  RH  048%=      5-min Rain = 0
KBR1 180825Z 23012KT 08/M03 A2982 RMK A01 T00791026  RH  047%=      5-min Rain = 0
KBR1 180826Z 23013KT 08/M03 A2982 RMK A01 T00801026  RH  047%=      5-min Rain = 0
KBR1 180827Z 23013KT 08/M03 A2982 RMK A01 T00821026  RH  047%=      5-min Rain = 0
KBR1 180828Z 24012KT 08/M03 A2982 RMK A01 T00821026  RH  046%=      5-min Rain = 0
KBR1 180829Z 24011KT 08/M03 A2982 RMK A01 T00821026  RH  046%=      5-min Rain = 0
KBR1 180830Z 23011KT 08/M03 A2982 RMK A01 T00811026  RH  047%=      5-min Rain = 0
KBR1 180831Z 23010KT 08/M03 A2982 RMK A01 T00811025  RH  047%=      5-min Rain = 0
KBR1 180832Z 24012KT 08/M03 A2982 RMK A01 T00801025  RH  047%=      5-min Rain = 0
KBR1 180833Z 23010KT 08/M03 A2983 RMK A01 T00791025  RH  048%=      5-min Rain = 0
KBR1 180834Z 24012KT 08/M03 A2983 RMK A01 T00801025  RH  048%=      5-min Rain = 0
KBR1 180835Z 23013KT 08/M03 A2983 RMK A01 T00801025  RH  047%=      5-min Rain = 0
KBR1 180836Z 24012KT 08/M03 A2983 RMK A01 T00811025  RH  047%=      5-min Rain = 0
KBR1 180837Z 24012KT 08/M03 A2983 RMK A01 T00811025  RH  047%=      5-min Rain = 0
KBR1 180838Z 23012KT 08/M03 A2983 RMK A01 T00811025  RH  047%=      5-min Rain = 0
KBR1 180839Z 24013KT 08/M02 A2983 RMK A01 T00811024  RH  047%=      5-min Rain = 0
KBR1 180840Z 23013KT 08/M02 A2983 RMK A01 T00821024  RH  047%=      5-min Rain = 0
KBR1 180841Z 23014KT 08/M02 A2983 RMK A01 T00831024  RH  047%=      5-min Rain = 0
KBR1 180842Z 23015G20KT 08/M02 A2983 RMK A01 T00831024  RH  047%=      5-min Rain = 0
KBR1 180843Z 23014G19KT 08/M02 A2983 RMK A01 T00841023  RH  047%=      5-min Rain = 0
KBR1 180844Z 24015KT 09/M02 A2983 RMK A01 T00851023  RH  046%=      5-min Rain = 0
KBR1 180845Z 23016G21KT 09/M02 A2983 RMK A01 T00861023  RH  046%=      5-min Rain = 0
KBR1 180846Z 23014KT 09/M02 A2983 RMK A01 T00861024  RH  046%=      5-min Rain = 0
KBR1 180847Z 23013KT 09/M02 A2982 RMK A01 T00861024  RH  046%=      5-min Rain = 0
KBR1 180848Z 23013KT 09/M02 A2982 RMK A01 T00851024  RH  046%=      5-min Rain = 0
KBR1 180849Z 22013KT 08/M03 A2982 RMK A01 T00841025  RH  046%=      5-min Rain = 0
KBR1 180850Z 22014KT 08/M02 A2982 RMK A01 T00841024  RH  047%=      5-min Rain = 0
KBR1 180851Z 22014KT 08/M02 A2982 RMK A01 T00831024  RH  047%=      5-min Rain = 0
KBR1 180852Z 22014KT 08/M02 A2982 RMK A01 T00821024  RH  047%=      5-min Rain = 0
KBR1 180853Z 22014KT 08/M02 A2982 RMK A01 T00821024  RH  047%=      5-min Rain = 0
KBR1 180854Z 22015KT 08/M02 A2982 RMK A01 T00821024  RH  047%=      5-min Rain = 0
KBR1 180855Z 23015KT 08/M02 A2982 RMK A01 T00811024  RH  048%=      5-min Rain = 0
KBR1 180856Z 23014KT 08/M02 A2982 RMK A01 T00811024  RH  048%=      5-min Rain = 0
KBR1 180857Z 22016KT 08/M02 A2982 RMK A01 T00811023  RH  048%=      5-min Rain = 0
KBR1 180858Z 22014KT 08/M02 A2982 RMK A01 T00821023  RH  047%=      5-min Rain = 0
KBR1 180859Z 23014KT 08/M02 A2982 RMK A01 T00811024  RH  048%=      5-min Rain = 0
KBR1 180900Z 22014G19KT 08/M02 A2982 RMK A01 T00801023  RH  048%=      5-min Rain = 0
KBR1 180901Z 22015KT 08/M02 A2982 RMK A01 T00801023  RH  048%=      5-min Rain = 0
KBR1 180902Z 22016KT 08/M02 A2982 RMK A01 T00801023  RH  048%=      5-min Rain = 0
KBR1 180903Z 23015KT 08/M02 A2982 RMK A01 T00811023  RH  048%=      5-min Rain = 0
KBR1 180904Z 23015KT 08/M02 A2982 RMK A01 T00811023  RH  048%=      5-min Rain = 0
KBR1 180905Z 23016KT 08/M02 A2982 RMK A01 T00801023  RH  048%=      5-min Rain = 0
KBR1 180906Z 23015KT 08/M02 A2982 RMK A01 T00811022  RH  048%=      5-min Rain = 0
KBR1 180907Z 23016G21KT 08/M02 A2982 RMK A01 T00811022  RH  048%=      5-min Rain = 0
KBR1 180908Z 23015G20KT 08/M02 A2982 RMK A01 T00821022  RH  048%=      5-min Rain = 0
KBR1 180909Z 23014KT 08/M02 A2981 RMK A01 T00831022  RH  048%=      5-min Rain = 0
KBR1 180910Z 23014KT 08/M02 A2982 RMK A01 T00821022  RH  048%=      5-min Rain = 0
KBR1 180911Z 23015KT 08/M02 A2982 RMK A01 T00821022  RH  048%=      5-min Rain = 0
KBR1 180912Z 23015KT 08/M02 A2982 RMK A01 T00821022  RH  048%=      5-min Rain = 0
KBR1 180913Z 23015KT 08/M02 A2982 RMK A01 T00821022  RH  048%=      5-min Rain = 0
KBR1 180914Z 23015KT 08/M02 A2981 RMK A01 T00821022  RH  048%=      5-min Rain = 0
KBR1 180915Z 23014KT 08/M02 A2981 RMK A01 T00831022  RH  048%=      5-min Rain = 0
KBR1 180916Z 23014KT 08/M02 A2981 RMK A01 T00831022  RH  047%=      5-min Rain = 0
KBR1 180917Z 22013KT 08/M02 A2981 RMK A01 T00831022  RH  047%=      5-min Rain = 0
KBR1 180918Z 22013KT 08/M02 A2981 RMK A01 T00831022  RH  047%=      5-min Rain = 0
KBR1 180919Z 22013KT 08/M02 A2981 RMK A01 T00831022  RH  048%=      5-min Rain = 0
KBR1 180920Z 23014KT 08/M02 A2981 RMK A01 T00821022  RH  048%=      5-min Rain = 0
KBR1 180921Z 22014KT 08/M02 A2981 RMK A01 T00831022  RH  048%=      5-min Rain = 0
KBR1 180922Z 22012KT 08/M02 A2981 RMK A01 T00821022  RH  048%=      5-min Rain = 0
KBR1 180923Z 22013KT 08/M02 A2981 RMK A01 T00821022  RH  048%=      5-min Rain = 0
KBR1 180924Z 22012KT 08/M02 A2981 RMK A01 T00821021  RH  048%=      5-min Rain = 0
KBR1 180925Z 22012KT 08/M02 A2981 RMK A01 T00811022  RH  048%=      5-min Rain = 0
KBR1 180926Z 22013KT 08/M02 A2981 RMK A01 T00811022  RH  048%=      5-min Rain = 0
KBR1 180927Z 22012KT 08/M02 A2981 RMK A01 T00811022  RH  048%=      5-min Rain = 0
KBR1 180928Z 22012KT 08/M02 A2981 RMK A01 T00811022  RH  048%=      5-min Rain = 0
KBR1 180929Z 22012KT 08/M02 A2981 RMK A01 T00811022  RH  048%=      5-min Rain = 0
KBR1 180930Z 21012KT 08/M02 A2981 RMK A01 T00811022  RH  048%=      5-min Rain = 0
KBR1 180931Z 22012G17KT 08/M02 A2981 RMK A01 T00811022  RH  048%=      5-min Rain = 0
KBR1 180932Z 22012KT 08/M02 A2981 RMK A01 T00811022  RH  048%=      5-min Rain = 0
KBR1 180933Z 22010KT 08/M02 A2981 RMK A01 T00801021  RH  049%=      5-min Rain = 0
KBR1 180934Z 22011KT 08/M02 A2981 RMK A01 T00791022  RH  049%=      5-min Rain = 0
KBR1 180935Z 22012KT 08/M02 A2981 RMK A01 T00791021  RH  049%=      5-min Rain = 0
KBR1 180936Z 22012KT 08/M02 A2981 RMK A01 T00791021  RH  049%=      5-min Rain = 0
KBR1 180937Z 21011KT 08/M02 A2981 RMK A01 T00801021  RH  049%=      5-min Rain = 0
KBR1 180938Z 22012KT 08/M02 A2981 RMK A01 T00801021  RH  049%=      5-min Rain = 0
KBR1 180939Z 22011KT 08/M02 A298 RMK A01 T00791021  RH  049%=      5-min Rain = 0
KBR1 180940Z 22012KT 08/M02 A298 RMK A01 T00791021  RH  049%=      5-min Rain = 0
KBR1 180941Z 22014KT 08/M02 A298 RMK A01 T00801020  RH  049%=      5-min Rain = 0
KBR1 180942Z 22011KT 08/M02 A298 RMK A01 T00811020  RH  049%=      5-min Rain = 0
KBR1 180943Z 22010KT 08/M02 A298 RMK A01 T00811020  RH  049%=      5-min Rain = 0
KBR1 180944Z 22012KT 08/M02 A298 RMK A01 T00811020  RH  049%=      5-min Rain = 0
KBR1 180945Z 22011KT 08/M02 A298 RMK A01 T00811020  RH  049%=      5-min Rain = 0
KBR1 180946Z 22013KT 08/M02 A298 RMK A01 T00811020  RH  049%=      5-min Rain = 0
KBR1 180947Z 22013KT 08/M02 A298 RMK A01 T00811020  RH  049%=      5-min Rain = 0
KBR1 180948Z 22013KT 08/M02 A298 RMK A01 T00811020  RH  049%=      5-min Rain = 0
KBR1 180949Z 22014KT 08/M02 A2979 RMK A01 T00831020  RH  048%=      5-min Rain = 0
KBR1 180950Z 22014KT 08/M02 A298 RMK A01 T00831020  RH  048%=      5-min Rain = 0
KBR1 180951Z 22014KT 08/M02 A2979 RMK A01 T00841020  RH  048%=      5-min Rain = 0
KBR1 180952Z 22015G20KT 08/M02 A2979 RMK A01 T00841020  RH  048%=      5-min Rain = 0
KBR1 180953Z 22016KT 09/M02 A2979 RMK A01 T00851020  RH  048%=      5-min Rain = 0
KBR1 180954Z 22015KT 09/M02 A2979 RMK A01 T00861020  RH  047%=      5-min Rain = 0
KBR1 180955Z 22016KT 09/M02 A2979 RMK A01 T00861020  RH  047%=      5-min Rain = 0
KBR1 180956Z 22016KT 09/M02 A2979 RMK A01 T00861020  RH  047%=      5-min Rain = 0
KBR1 180957Z 23016KT 09/M02 A2979 RMK A01 T00861020  RH  047%=      5-min Rain = 0
KBR1 180958Z 22016G22KT 09/M02 A2979 RMK A01 T00871020  RH  047%=      5-min Rain = 0
KBR1 180959Z 22016KT 09/M02 A2979 RMK A01 T00871021  RH  047%=      5-min Rain = 0
KBR1 181000Z 22015KT 09/M02 A2979 RMK A01 T00881021  RH  046%=      5-min Rain = 0
KBR1 181001Z 22014KT 09/M02 A2979 RMK A01 T00881021  RH  046%=      5-min Rain = 0
KBR1 181002Z 22015KT 09/M02 A2979 RMK A01 T00881021  RH  046%=      5-min Rain = 0
KBR1 181003Z 22014KT 09/M02 A2979 RMK A01 T00871021  RH  047%=      5-min Rain = 0
KBR1 181004Z 22015KT 09/M02 A2979 RMK A01 T00871021  RH  047%=      5-min Rain = 0
KBR1 181005Z 22015KT 09/M02 A2979 RMK A01 T00861021  RH  047%=      5-min Rain = 0
KBR1 181006Z 22014KT 09/M02 A2979 RMK A01 T00861021  RH  047%=      5-min Rain = 0
KBR1 181007Z 22015KT 09/M02 A2978 RMK A01 T00851021  RH  047%=      5-min Rain = 0
KBR1 181008Z 22014KT 08/M02 A2978 RMK A01 T00841021  RH  047%=      5-min Rain = 0
KBR1 181009Z 22015KT 08/M02 A2978 RMK A01 T00841021  RH  048%=      5-min Rain = 0
KBR1 181010Z 22015KT 08/M02 A2978 RMK A01 T00841021  RH  048%=      5-min Rain = 0
KBR1 181011Z 22014KT 08/M02 A2978 RMK A01 T00831021  RH  048%=      5-min Rain = 0
KBR1 181012Z 23014KT 08/M02 A2978 RMK A01 T00821021  RH  048%=      5-min Rain = 0
KBR1 181013Z 22015KT 08/M02 A2978 RMK A01 T00821021  RH  048%=      5-min Rain = 0
KBR1 181014Z 22013KT 08/M02 A2978 RMK A01 T00821021  RH  048%=      5-min Rain = 0
KBR1 181015Z 22013KT 08/M02 A2978 RMK A01 T00821021  RH  048%=      5-min Rain = 0
KBR1 181016Z 22013KT 08/M02 A2978 RMK A01 T00811022  RH  048%=      5-min Rain = 0
KBR1 181017Z 23011KT 08/M02 A2978 RMK A01 T00801021  RH  049%=      5-min Rain = 0
KBR1 181018Z 23013KT 08/M02 A2978 RMK A01 T00801021  RH  049%=      5-min Rain = 0
KBR1 181019Z 23014KT 08/M02 A2978 RMK A01 T00801021  RH  049%=      5-min Rain = 0
KBR1 181020Z 23014KT 08/M02 A2978 RMK A01 T00801021  RH  049%=      5-min Rain = 0
KBR1 181021Z 23013KT 08/M02 A2978 RMK A01 T00801021  RH  049%=      5-min Rain = 0
KBR1 181022Z 23013KT 08/M02 A2978 RMK A01 T00801021  RH  049%=      5-min Rain = 0
KBR1 181023Z 23014KT 08/M02 A2978 RMK A01 T00801021  RH  049%=      5-min Rain = 0
KBR1 181024Z 23014KT 08/M02 A2978 RMK A01 T00811021  RH  049%=      5-min Rain = 0
KBR1 181025Z 23013KT 08/M02 A2978 RMK A01 T00811022  RH  048%=      5-min Rain = 0
KBR1 181026Z 23014KT 08/M02 A2977 RMK A01 T00811021  RH  048%=      5-min Rain = 0
KBR1 181027Z 23014KT 08/M02 A2977 RMK A01 T00811021  RH  048%=      5-min Rain = 0
KBR1 181028Z 23015KT 08/M02 A2977 RMK A01 T00811022  RH  048%=      5-min Rain = 0
KBR1 181029Z 22014KT 08/M02 A2977 RMK A01 T00811021  RH  048%=      5-min Rain = 0
KBR1 181030Z 23014KT 08/M02 A2977 RMK A01 T00811022  RH  048%=      5-min Rain = 0
KBR1 181031Z 23013KT 08/M02 A2977 RMK A01 T00821021  RH  048%=      5-min Rain = 0
KBR1 181032Z 22014KT 08/M02 A2976 RMK A01 T00821021  RH  048%=      5-min Rain = 0
KBR1 181033Z 22013KT 08/M02 A2976 RMK A01 T00821022  RH  048%=      5-min Rain = 0
KBR1 181034Z 22015KT 08/M02 A2976 RMK A01 T00831021  RH  048%=      5-min Rain = 0
KBR1 181035Z 22014KT 08/M02 A2976 RMK A01 T00841021  RH  048%=      5-min Rain = 0
KBR1 181036Z 22013KT 08/M02 A2976 RMK A01 T00841021  RH  048%=      5-min Rain = 0
KBR1 181037Z 22013KT 08/M02 A2976 RMK A01 T00841021  RH  047%=      5-min Rain = 0
KBR1 181038Z 23013KT 08/M02 A2976 RMK A01 T00841021  RH  047%=      5-min Rain = 0
KBR1 181039Z 23013KT 09/M02 A2976 RMK A01 T00851021  RH  047%=      5-min Rain = 0
KBR1 181040Z 23014KT 09/M02 A2976 RMK A01 T00851022  RH  047%=      5-min Rain = 0
KBR1 181041Z 23012KT 09/M02 A2976 RMK A01 T00861021  RH  047%=      5-min Rain = 0
KBR1 181042Z 23013KT 09/M02 A2976 RMK A01 T00861021  RH  047%=      5-min Rain = 0
KBR1 181043Z 23013KT 09/M02 A2976 RMK A01 T00861021  RH  047%=      5-min Rain = 0
KBR1 181044Z 23012KT 09/M02 A2976 RMK A01 T00861021  RH  047%=      5-min Rain = 0
KBR1 181045Z 23013KT 09/M02 A2976 RMK A01 T00861021  RH  047%=      5-min Rain = 0
KBR1 181046Z 23014KT 09/M02 A2976 RMK A01 T00861021  RH  047%=      5-min Rain = 0
KBR1 181047Z 24015KT 09/M02 A2976 RMK A01 T00871021  RH  046%=      5-min Rain = 0
KBR1 181048Z 24015KT 09/M02 A2976 RMK A01 T00881021  RH  046%=      5-min Rain = 0
KBR1 181049Z 23015KT 09/M02 A2976 RMK A01 T00901021  RH  046%=      5-min Rain = 0
KBR1 181050Z 24015G20KT 09/M02 A2976 RMK A01 T00901022  RH  046%=      5-min Rain = 0
KBR1 181051Z 23015KT 09/M02 A2976 RMK A01 T00901022  RH  046%=      5-min Rain = 0
KBR1 181052Z 23014KT 09/M02 A2975 RMK A01 T00901022  RH  045%=      5-min Rain = 0
KBR1 181053Z 23015KT 09/M02 A2976 RMK A01 T00901022  RH  045%=      5-min Rain = 0
KBR1 181054Z 23015KT 09/M02 A2975 RMK A01 T00901022  RH  045%=      5-min Rain = 0
KBR1 181055Z 23015KT 09/M02 A2975 RMK A01 T00911021  RH  045%=      5-min Rain = 0
KBR1 181056Z 23016KT 09/M02 A2975 RMK A01 T00911021  RH  045%=      5-min Rain = 0
KBR1 181057Z 24015KT 09/M02 A2975 RMK A01 T00921022  RH  045%=      5-min Rain = 0
KBR1 181058Z 23014KT 09/M02 A2975 RMK A01 T00911021  RH  045%=      5-min Rain = 0
KBR1 181059Z 23013KT 09/M02 A2975 RMK A01 T00911021  RH  045%=      5-min Rain = 0
KBR1 181100Z 23014KT 09/M02 A2975 RMK A01 T00901021  RH  046%=      5-min Rain = 0
KBR1 181101Z 24016KT 09/M02 A2975 RMK A01 T00901021  RH  046%=      5-min Rain = 0
KBR1 181102Z 24013KT 09/M02 A2975 RMK A01 T00901021  RH  046%=      5-min Rain = 0
KBR1 181103Z 24013KT 09/M02 A2975 RMK A01 T00901021  RH  046%=      5-min Rain = 0
KBR1 181104Z 23013KT 09/M02 A2975 RMK A01 T00901021  RH  046%=      5-min Rain = 0
KBR1 181105Z 24012KT 09/M02 A2975 RMK A01 T00891021  RH  046%=      5-min Rain = 0
KBR1 181106Z 24012KT 09/M02 A2975 RMK A01 T00901020  RH  046%=      5-min Rain = 0
KBR1 181107Z 24012KT 09/M02 A2975 RMK A01 T00901020  RH  046%=      5-min Rain = 0
KBR1 181108Z 24012KT 09/M02 A2975 RMK A01 T00891020  RH  046%=      5-min Rain = 0
KBR1 181109Z 24011KT 09/M02 A2975 RMK A01 T00891019  RH  046%=      5-min Rain = 0
KBR1 181110Z 24012KT 09/M02 A2975 RMK A01 T00881019  RH  047%=      5-min Rain = 0
KBR1 181111Z 24011KT 09/M02 A2975 RMK A01 T00881019  RH  047%=      5-min Rain = 0
KBR1 181112Z 23011KT 09/M02 A2975 RMK A01 T00871019  RH  047%=      5-min Rain = 0
KBR1 181113Z 23013KT 09/M02 A2975 RMK A01 T00861019  RH  047%=      5-min Rain = 0
KBR1 181114Z 23013KT 09/M02 A2975 RMK A01 T00861019  RH  048%=      5-min Rain = 0
KBR1 181115Z 23013KT 09/M02 A2975 RMK A01 T00861019  RH  048%=      5-min Rain = 0
KBR1 181116Z 23013KT 09/M02 A2975 RMK A01 T00861019  RH  048%=      5-min Rain = 0
KBR1 181117Z 23013KT 09/M02 A2975 RMK A01 T00851019  RH  048%=      5-min Rain = 0
KBR1 181118Z 23014KT 09/M02 A2974 RMK A01 T00851019  RH  048%=      5-min Rain = 0
KBR1 181119Z 23013KT 09/M02 A2974 RMK A01 T00851018  RH  048%=      5-min Rain = 0
KBR1 181120Z 23013KT 08/M02 A2974 RMK A01 T00841018  RH  048%=      5-min Rain = 0
KBR1 181121Z 23012KT 08/M02 A2974 RMK A01 T00831018  RH  049%=      5-min Rain = 0
KBR1 181122Z 23013KT 08/M02 A2974 RMK A01 T00831018  RH  049%=      5-min Rain = 0
KBR1 181123Z 23012KT 08/M02 A2974 RMK A01 T00831017  RH  049%=      5-min Rain = 0
KBR1 181124Z 23011KT 08/M02 A2974 RMK A01 T00831017  RH  049%=      5-min Rain = 0
KBR1 181125Z 23010KT 08/M02 A2974 RMK A01 T00821017  RH  050%=      5-min Rain = 0
KBR1 181126Z 24010KT 08/M02 A2974 RMK A01 T00801016  RH  051%=      5-min Rain = 0
KBR1 181127Z 24010KT 08/M02 A2975 RMK A01 T00791016  RH  051%=      5-min Rain = 0
KBR1 181128Z 24010KT 08/M02 A2975 RMK A01 T00791016  RH  051%=      5-min Rain = 0
KBR1 181129Z 24009KT 08/M02 A2975 RMK A01 T00791016  RH  051%=      5-min Rain = 0
KBR1 181130Z 24008KT 08/M02 A2975 RMK A01 T00791016  RH  051%=      5-min Rain = 0
KBR1 181131Z 24009KT 08/M02 A2975 RMK A01 T00791015  RH  051%=      5-min Rain = 0
KBR1 181132Z 24009KT 08/M02 A2975 RMK A01 T00791015  RH  051%=      5-min Rain = 0
KBR1 181133Z 24009KT 08/M02 A2975 RMK A01 T00791015  RH  052%=      5-min Rain = 0
KBR1 181134Z 24007KT 08/M01 A2975 RMK A01 T00791014  RH  052%=      5-min Rain = 0
KBR1 181135Z 24008KT 08/M01 A2975 RMK A01 T00791014  RH  052%=      5-min Rain = 0
KBR1 181136Z 25006KT 08/M01 A2975 RMK A01 T00791014  RH  052%=      5-min Rain = 0
KBR1 181137Z 26006KT 08/M01 A2975 RMK A01 T00781014  RH  052%=      5-min Rain = 0
KBR1 181138Z 26006KT 08/M01 A2975 RMK A01 T00791013  RH  052%=      5-min Rain = 0
KBR1 181139Z 26005KT 08/M01 A2975 RMK A01 T00781014  RH  052%=      5-min Rain = 0
KBR1 181140Z 27003KT 08/M01 A2975 RMK A01 T00781014  RH  052%=      5-min Rain = 0
KBR1 181141Z 26004KT 08/M01 A2975 RMK A01 T00781013  RH  053%=      5-min Rain = 0
KBR1 181142Z 26002KT 08/M01 A2974 RMK A01 T00781013  RH  053%=      5-min Rain = 0
KBR1 181143Z 24002KT 08/M01 A2974 RMK A01 T00771014  RH  053%=      5-min Rain = 0
KBR1 181144Z 25003KT 08/M01 A2974 RMK A01 T00771014  RH  053%=      5-min Rain = 0
KBR1 181145Z 21002KT 08/M01 A2974 RMK A01 T00771013  RH  053%=      5-min Rain = 0
KBR1 181146Z 18002KT 08/M01 A2974 RMK A01 T00781013  RH  052%=      5-min Rain = 0
KBR1 181147Z 19003KT 08/M01 A2974 RMK A01 T00781013  RH  052%=      5-min Rain = 0
KBR1 181148Z 17003KT 08/M01 A2974 RMK A01 T00771014  RH  053%=      5-min Rain = 0
KBR1 181149Z 19002KT 08/M01 A2974 RMK A01 T00751014  RH  053%=      5-min Rain = 0
KBR1 181150Z 22003KT 07/M01 A2974 RMK A01 T00741013  RH  054%=      5-min Rain = 0
KBR1 181151Z 22004KT 07/M01 A2974 RMK A01 T00731012  RH  055%=      5-min Rain = 0
KBR1 181152Z 23006KT 07/M01 A2974 RMK A01 T00731011  RH  055%=      5-min Rain = 0
KBR1 181153Z 23006KT 07/M01 A2974 RMK A01 T00741009  RH  056%=      5-min Rain = 0
KBR1 181154Z 23007KT 08/M01 A2974 RMK A01 T00761008  RH  055%=      5-min Rain = 0
KBR1 181155Z 23007KT 08/M01 A2974 RMK A01 T00781008  RH  055%=      5-min Rain = 0
KBR1 181156Z 24006KT 08/M01 A2974 RMK A01 T00781008  RH  054%=      5-min Rain = 0
KBR1 181157Z 25008KT 08/M01 A2974 RMK A01 T00801008  RH  054%=      5-min Rain = 0
KBR1 181158Z 25006KT 08/M01 A2974 RMK A01 T00811007  RH  054%=      5-min Rain = 0
KBR1 181159Z 25007KT 08/M01 A2974 RMK A01 T00811007  RH  054%=      5-min Rain = 0
KBR1 181200Z 25006KT 08/M01 A2974 RMK A01 T00811007  RH  054%=      5-min Rain = 0
KBR1 181201Z 24006KT 08/M01 A2974 RMK A01 T00811007  RH  054%=      5-min Rain = 0
KBR1 181202Z 24005KT 08/M01 A2974 RMK A01 T00811007  RH  054%=      5-min Rain = 0
KBR1 181203Z 24005KT 08/M01 A2973 RMK A01 T00801008  RH  054%=      5-min Rain = 0
KBR1 181204Z 24007KT 08/M01 A2973 RMK A01 T00791008  RH  054%=      5-min Rain = 0
KBR1 181205Z 24007KT 08/M01 A2973 RMK A01 T00801007  RH  054%=      5-min Rain = 0
KBR1 181206Z 25007KT 08/M01 A2973 RMK A01 T00801007  RH  054%=      5-min Rain = 0
KBR1 181207Z 25008KT 08/M01 A2973 RMK A01 T00801007  RH  054%=      5-min Rain = 0
KBR1 181208Z 25008KT 08/M01 A2973 RMK A01 T00801006  RH  054%=      5-min Rain = 0
KBR1 181209Z 25008KT 08/M01 A2973 RMK A01 T00801006  RH  055%=      5-min Rain = 0
KBR1 181210Z 25008KT 08/M01 A2973 RMK A01 T00801006  RH  055%=      5-min Rain = 0
KBR1 181211Z 26008KT 08/M01 A2973 RMK A01 T00801005  RH  055%=      5-min Rain = 0
KBR1 181212Z 26008KT 08/M01 A2973 RMK A01 T00801006  RH  055%=      5-min Rain = 0
KBR1 181213Z 26008KT 08/M01 A2973 RMK A01 T00801006  RH  055%=      5-min Rain = 0
KBR1 181214Z 25008KT 08/M01 A2973 RMK A01 T00801006  RH  055%=      5-min Rain = 0
KBR1 181215Z 26008KT 08/M01 A2974 RMK A01 T00801006  RH  055%=      5-min Rain = 0
KBR1 181216Z 26008KT 08/M01 A2974 RMK A01 T00791007  RH  055%=      5-min Rain = 0
KBR1 181217Z 26007KT 08/M01 A2974 RMK A01 T00781006  RH  055%=      5-min Rain = 0
KBR1 181218Z 27006KT 08/M01 A2974 RMK A01 T00771006  RH  056%=      5-min Rain = 0
KBR1 181219Z 26006KT 08/M01 A2974 RMK A01 T00751006  RH  056%=      5-min Rain = 0
KBR1 181220Z 26006KT 07/M01 A2974 RMK A01 T00741007  RH  057%=      5-min Rain = 0
KBR1 181221Z 26005KT 07/M01 A2974 RMK A01 T00731007  RH  057%=      5-min Rain = 0
KBR1 181222Z 26005KT 07/M01 A2973 RMK A01 T00721007  RH  057%=      5-min Rain = 0
KBR1 181223Z 26006KT 07/M01 A2973 RMK A01 T00721006  RH  057%=      5-min Rain = 0
KBR1 181224Z 26005KT 07/M01 A2974 RMK A01 T00721006  RH  057%=      5-min Rain = 0
KBR1 181225Z 25005KT 07/M01 A2974 RMK A01 T00711007  RH  058%=      5-min Rain = 0
KBR1 181226Z 25004KT 07/M01 A2974 RMK A01 T00701007  RH  058%=      5-min Rain = 0
KBR1 181227Z 25005KT 07/M01 A2973 RMK A01 T00701007  RH  058%=      5-min Rain = 0
KBR1 181228Z 25004KT 07/M01 A2974 RMK A01 T00701006  RH  058%=      5-min Rain = 0
KBR1 181229Z 24004KT 07/M01 A2974 RMK A01 T00691006  RH  059%=      5-min Rain = 0
KBR1 181230Z 25004KT 07/M01 A2974 RMK A01 T00691006  RH  059%=      5-min Rain = 0
KBR1 181231Z 24004KT 07/M01 A2974 RMK A01 T00681006  RH  059%=      5-min Rain = 0
KBR1 181232Z 23004KT 07/M01 A2973 RMK A01 T00681006  RH  059%=      5-min Rain = 0
KBR1 181233Z 22005KT 07/M01 A2973 RMK A01 T00681006  RH  059%=      5-min Rain = 0
KBR1 181234Z 22006KT 07/M01 A2973 RMK A01 T00671005  RH  060%=      5-min Rain = 0
KBR1 181235Z 21005KT 07/M01 A2973 RMK A01 T00671005  RH  060%=      5-min Rain = 0
KBR1 181236Z 21005KT 07/M01 A2973 RMK A01 T00661005  RH  060%=      5-min Rain = 0
KBR1 181237Z 21005KT 07/M00 A2973 RMK A01 T00661004  RH  061%=      5-min Rain = 0
KBR1 181238Z 21004KT 07/M00 A2973 RMK A01 T00661004  RH  061%=      5-min Rain = 0
KBR1 181239Z 21005KT 07/M00 A2973 RMK A01 T00661004  RH  061%=      5-min Rain = 0
KBR1 181240Z 22005KT 07/M00 A2973 RMK A01 T00661003  RH  061%=      5-min Rain = 0
KBR1 181241Z 22005KT 07/M00 A2973 RMK A01 T00661003  RH  061%=      5-min Rain = 0
KBR1 181242Z 22006KT 07/M00 A2973 RMK A01 T00661002  RH  062%=      5-min Rain = 0
KBR1 181243Z 21005KT 07/M00 A2973 RMK A01 T00671002  RH  062%=      5-min Rain = 0
KBR1 181244Z 21005KT 07/M00 A2973 RMK A01 T00661002  RH  062%=      5-min Rain = 0
KBR1 181245Z 22005KT 07/M00 A2973 RMK A01 T00661001  RH  062%=      5-min Rain = 0
KBR1 181246Z 22005KT 07/00 A2973 RMK A01 T006600-0  RH  063%=      5-min Rain = 0
KBR1 181247Z 22006KT 07/00 A2973 RMK A01 T00670000  RH  063%=      5-min Rain = 0
KBR1 181248Z 22005KT 07/00 A2973 RMK A01 T00670001  RH  062%=      5-min Rain = 0
KBR1 181249Z 24004KT 07/00 A2973 RMK A01 T00670001  RH  063%=      5-min Rain = 0
KBR1 181250Z 24004KT 07/00 A2973 RMK A01 T00670001  RH  063%=      5-min Rain = 0
KBR1 181251Z 25005KT 07/00 A2973 RMK A01 T00680002  RH  063%=      5-min Rain = 0
KBR1 181252Z 26004KT 07/00 A2974 RMK A01 T00690002  RH  063%=      5-min Rain = 0
KBR1 181253Z 25003KT 07/00 A2974 RMK A01 T00700003  RH  062%=      5-min Rain = 0
KBR1 181254Z 24002KT 07/00 A2974 RMK A01 T00700003  RH  062%=      5-min Rain = 0
KBR1 181255Z 24003KT 07/00 A2974 RMK A01 T00700002  RH  062%=      5-min Rain = 0
KBR1 181256Z 26003KT 07/00 A2974 RMK A01 T00710003  RH  062%=      5-min Rain = 0
KBR1 181257Z 24002KT 07/00 A2974 RMK A01 T00710003  RH  062%=      5-min Rain = 0
KBR1 181258Z 27001KT 07/00 A2974 RMK A01 T00710003  RH  062%=      5-min Rain = 0
KBR1 181259Z 25002KT 07/00 A2974 RMK A01 T00710003  RH  062%=      5-min Rain = 0
KBR1 181300Z 02001KT 07/00 A2974 RMK A01 T00710002  RH  062%=      5-min Rain = 0
KBR1 181301Z 04001KT 07/00 A2974 RMK A01 T006900-0  RH  062%=      5-min Rain = 0
KBR1 181302Z 07002KT 07/M00 A2974 RMK A01 T00651002  RH  062%=      5-min Rain = 0
KBR1 181303Z 07003KT 06/M00 A2974 RMK A01 T00621002  RH  064%=      5-min Rain = 0
KBR1 181304Z 10002KT 06/M00 A2974 RMK A01 T00601001  RH  065%=      5-min Rain = 0
KBR1 181305Z 10003KT 06/M00 A2974 RMK A01 T00591001  RH  065%=      5-min Rain = 0
KBR1 181306Z 11002KT 06/00 A2974 RMK A01 T00610001  RH  066%=      5-min Rain = 0
KBR1 181307Z 14002KT 06/00 A2974 RMK A01 T00630003  RH  065%=      5-min Rain = 0
KBR1 181308Z 15002KT 06/00 A2974 RMK A01 T00640003  RH  065%=      5-min Rain = 0
KBR1 181309Z 15002KT 06/00 A2974 RMK A01 T00640002  RH  065%=      5-min Rain = 0
KBR1 181310Z 11001KT 06/00 A2974 RMK A01 T00640003  RH  065%=      5-min Rain = 0
KBR1 181311Z 07002KT 06/00 A2974 RMK A01 T00620000  RH  065%=      5-min Rain = 0
KBR1 181312Z 08003KT 06/M00 A2974 RMK A01 T00591001  RH  066%=      5-min Rain = 0
KBR1 181313Z 07003KT 06/00 A2974 RMK A01 T005700-0  RH  067%=      5-min Rain = 0
KBR1 181314Z 08003KT 06/00 A2975 RMK A01 T005800-0  RH  066%=      5-min Rain = 0
KBR1 181315Z 08004KT 06/00 A2974 RMK A01 T00590001  RH  066%=      5-min Rain = 0
KBR1 181316Z 10003KT 06/00 A2974 RMK A01 T00600002  RH  066%=      5-min Rain = 0
KBR1 181317Z 11003KT 06/01 A2974 RMK A01 T00630005  RH  066%=      5-min Rain = 0
KBR1 181318Z 12002KT 07/01 A2974 RMK A01 T00660005  RH  065%=      5-min Rain = 0
KBR1 181319Z 11001KT 07/00 A2974 RMK A01 T00670004  RH  064%=      5-min Rain = 0
KBR1 181320Z 13003KT 07/01 A2974 RMK A01 T00680005  RH  064%=      5-min Rain = 0
KBR1 181321Z 14003KT 07/00 A2974 RMK A01 T00670004  RH  064%=      5-min Rain = 0
KBR1 181322Z 14002KT 07/01 A2974 RMK A01 T00670005  RH  064%=      5-min Rain = 0
KBR1 181323Z 14002KT 07/01 A2974 RMK A01 T00680005  RH  064%=      5-min Rain = 0
KBR1 181324Z 18002KT 07/01 A2974 RMK A01 T00700006  RH  064%=      5-min Rain = 0
KBR1 181325Z 17003KT 07/01 A2974 RMK A01 T00700006  RH  064%=      5-min Rain = 0
KBR1 181326Z 18004KT 07/01 A2974 RMK A01 T00710007  RH  064%=      5-min Rain = 0
KBR1 181327Z 18005KT 07/01 A2974 RMK A01 T00720007  RH  063%=      5-min Rain = 0
KBR1 181328Z 18005KT 07/01 A2974 RMK A01 T00730007  RH  063%=      5-min Rain = 0
KBR1 181329Z 18006KT 07/01 A2974 RMK A01 T00710006  RH  063%=      5-min Rain = 0
KBR1 181330Z 19008KT 07/01 A2974 RMK A01 T00700006  RH  064%=      5-min Rain = 0
KBR1 181331Z 19007KT 07/01 A2974 RMK A01 T00730008  RH  063%=      5-min Rain = 0
KBR1 181332Z 19007KT 08/01 A2974 RMK A01 T00750008  RH  063%=      5-min Rain = 0
KBR1 181333Z 19007KT 08/01 A2974 RMK A01 T00760008  RH  062%=      5-min Rain = 0
KBR1 181334Z 19008KT 08/01 A2974 RMK A01 T00790010  RH  062%=      5-min Rain = 0
KBR1 181335Z 19007KT 08/01 A2974 RMK A01 T00810010  RH  061%=      5-min Rain = 0
KBR1 181336Z 21009KT 08/01 A2974 RMK A01 T00810010  RH  061%=      5-min Rain = 0
KBR1 181337Z 19006KT 08/01 A2974 RMK A01 T00820010  RH  060%=      5-min Rain = 0
KBR1 181338Z 19006KT 08/01 A2974 RMK A01 T00810009  RH  060%=      5-min Rain = 0
KBR1 181339Z 19006KT 08/01 A2974 RMK A01 T00790008  RH  061%=      5-min Rain = 0
KBR1 181340Z 18005KT 08/01 A2974 RMK A01 T00790009  RH  061%=      5-min Rain = 0
KBR1 181341Z 18005KT 08/01 A2974 RMK A01 T00790009  RH  061%=      5-min Rain = 0
KBR1 181342Z 18006KT 08/01 A2974 RMK A01 T00780009  RH  061%=      5-min Rain = 0
KBR1 181343Z 17005KT 08/01 A2974 RMK A01 T00780009  RH  062%=      5-min Rain = 0
KBR1 181344Z 18005KT 08/01 A2974 RMK A01 T00790010  RH  062%=      5-min Rain = 0
KBR1 181345Z 18005KT 08/01 A2975 RMK A01 T00790010  RH  061%=      5-min Rain = 0
KBR1 181346Z 18004KT 08/01 A2975 RMK A01 T00790010  RH  061%=      5-min Rain = 0
KBR1 181347Z 19004KT 08/01 A2975 RMK A01 T00800010  RH  061%=      5-min Rain = 0
KBR1 181348Z 19003KT 08/01 A2975 RMK A01 T00810010  RH  061%=      5-min Rain = 0
KBR1 181349Z 19003KT 08/01 A2975 RMK A01 T00810009  RH  061%=      5-min Rain = 0
KBR1 181350Z 18003KT 08/01 A2975 RMK A01 T00810010  RH  061%=      5-min Rain = 0
KBR1 181351Z 19003KT 08/01 A2975 RMK A01 T00800009  RH  061%=      5-min Rain = 0
KBR1 181352Z 18003KT 08/01 A2975 RMK A01 T00800009  RH  061%=      5-min Rain = 0
KBR1 181353Z 19005KT 08/01 A2974 RMK A01 T00790009  RH  061%=      5-min Rain = 0
KBR1 181354Z 19005KT 08/01 A2974 RMK A01 T00790010  RH  062%=      5-min Rain = 0
KBR1 181355Z 18004KT 08/01 A2974 RMK A01 T00790010  RH  062%=      5-min Rain = 0
KBR1 181356Z 20006KT 08/01 A2974 RMK A01 T00790010  RH  061%=      5-min Rain = 0
KBR1 181357Z 20007KT 08/01 A2974 RMK A01 T00780010  RH  062%=      5-min Rain = 0
KBR1 181358Z 20008KT 08/01 A2974 RMK A01 T00770010  RH  063%=      5-min Rain = 0
KBR1 181359Z 20008KT 08/01 A2974 RMK A01 T00760010  RH  063%=      5-min Rain = 0
KBR1 181400Z 20008KT 08/01 A2974 RMK A01 T00750010  RH  063%=      5-min Rain = 0
KBR1 181401Z 20008KT 07/01 A2974 RMK A01 T00740010  RH  064%=      5-min Rain = 0
KBR1 181402Z 20009KT 07/01 A2974 RMK A01 T00740011  RH  064%=      5-min Rain = 0
KBR1 181403Z 21009KT 07/01 A2974 RMK A01 T00740011  RH  065%=      5-min Rain = 0
KBR1 181404Z 20010KT 08/01 A2974 RMK A01 T00760013  RH  064%=      5-min Rain = 0
KBR1 181405Z 20009KT 08/01 A2974 RMK A01 T00780013  RH  064%=      5-min Rain = 0
KBR1 181406Z 20009KT 08/01 A2974 RMK A01 T00780012  RH  063%=      5-min Rain = 0
KBR1 181407Z 20010KT 08/01 A2974 RMK A01 T00780012  RH  063%=      5-min Rain = 0
KBR1 181408Z 20009KT 08/01 A2974 RMK A01 T00780012  RH  063%=      5-min Rain = 0
KBR1 181409Z 20008KT 08/01 A2974 RMK A01 T00780013  RH  063%=      5-min Rain = 0
KBR1 181410Z 20008KT 08/01 A2974 RMK A01 T00780013  RH  063%=      5-min Rain = 0
KBR1 181411Z 20008KT 08/01 A2974 RMK A01 T00780013  RH  063%=      5-min Rain = 0
KBR1 181412Z 20008KT 08/01 A2974 RMK A01 T00780013  RH  063%=      5-min Rain = 0
KBR1 181413Z 20008KT 08/01 A2974 RMK A01 T00780013  RH  063%=      5-min Rain = 0
KBR1 181414Z 20008KT 08/01 A2974 RMK A01 T00780013  RH  063%=      5-min Rain = 0
KBR1 181415Z 19008KT 08/01 A2974 RMK A01 T00780013  RH  064%=      5-min Rain = 0
KBR1 181416Z 21009KT 08/01 A2974 RMK A01 T00780013  RH  064%=      5-min Rain = 0
KBR1 181417Z 21009KT 08/01 A2974 RMK A01 T00780014  RH  064%=      5-min Rain = 0
KBR1 181418Z 20008KT 08/01 A2974 RMK A01 T00790014  RH  064%=      5-min Rain = 0
KBR1 181419Z 21008KT 08/01 A2974 RMK A01 T00790014  RH  064%=      5-min Rain = 0
KBR1 181420Z 21009KT 08/01 A2974 RMK A01 T00800014  RH  063%=      5-min Rain = 0
KBR1 181421Z 21008KT 08/01 A2974 RMK A01 T00800014  RH  063%=      5-min Rain = 0
KBR1 181422Z 22008KT 08/01 A2974 RMK A01 T00800014  RH  063%=      5-min Rain = 0
KBR1 181423Z 23008KT 08/01 A2974 RMK A01 T00800014  RH  063%=      5-min Rain = 0
KBR1 181424Z 23007KT 08/01 A2974 RMK A01 T00800014  RH  063%=      5-min Rain = 0
KBR1 181425Z 23008KT 08/02 A2974 RMK A01 T00800015  RH  063%=      5-min Rain = 0
KBR1 181426Z 23009KT 08/02 A2974 RMK A01 T00800015  RH  063%=      5-min Rain = 0
KBR1 181427Z 24013G18KT 08/02 A2974 RMK A01 T00820016  RH  063%=      5-min Rain = 0
KBR1 181428Z 24012KT 09/02 A2974 RMK A01 T00850017  RH  062%=      5-min Rain = 0
KBR1 181429Z 24012KT 09/02 A2974 RMK A01 T00870017  RH  061%=      5-min Rain = 0
KBR1 181430Z 23011KT 09/02 A2974 RMK A01 T00880017  RH  061%=      5-min Rain = 0
KBR1 181431Z 24015G20KT 09/02 A2974 RMK A01 T00880017  RH  061%=      5-min Rain = 0
KBR1 181432Z 23015KT 09/02 A2974 RMK A01 T00890017  RH  061%=      5-min Rain = 0
KBR1 181433Z 24015KT 09/02 A2974 RMK A01 T00910018  RH  060%=      5-min Rain = 0
KBR1 181434Z 24014G20KT 09/02 A2974 RMK A01 T00910018  RH  060%=      5-min Rain = 0
KBR1 181435Z 24015KT 09/02 A2974 RMK A01 T00920018  RH  060%=      5-min Rain = 0
KBR1 181436Z 24017G22KT 09/02 A2974 RMK A01 T00920018  RH  060%=      5-min Rain = 0
KBR1 181437Z 24016KT 09/02 A2974 RMK A01 T00930018  RH  059%=      5-min Rain = 0
KBR1 181438Z 24017KT 09/02 A2974 RMK A01 T00930017  RH  059%=      5-min Rain = 0
KBR1 181439Z 23017KT 09/02 A2974 RMK A01 T00940017  RH  059%=      5-min Rain = 0
KBR1 181440Z 24016KT 09/02 A2974 RMK A01 T00940018  RH  059%=      5-min Rain = 0
KBR1 181441Z 24017KT 09/02 A2974 RMK A01 T00940018  RH  059%=      5-min Rain = 0
KBR1 181442Z 24016KT 09/02 A2974 RMK A01 T00940018  RH  059%=      5-min Rain = 0
KBR1 181443Z 24019KT 09/02 A2974 RMK A01 T00940018  RH  059%=      5-min Rain = 0
KBR1 181444Z 24016KT 09/02 A2974 RMK A01 T00940018  RH  059%=      5-min Rain = 0
KBR1 181445Z 24016KT 09/02 A2974 RMK A01 T00940018  RH  059%=      5-min Rain = 0
KBR1 181446Z 24018KT 09/02 A2974 RMK A01 T00940018  RH  059%=      5-min Rain = 0
KBR1 181447Z 24018KT 10/02 A2974 RMK A01 T00950018  RH  059%=      5-min Rain = 0
KBR1 181448Z 24019KT 10/02 A2973 RMK A01 T00950018  RH  058%=      5-min Rain = 0
KBR1 181449Z 24019KT 10/02 A2973 RMK A01 T00960018  RH  058%=      5-min Rain = 0
KBR1 181450Z 24014KT 10/02 A2973 RMK A01 T00960018  RH  058%=      5-min Rain = 0
KBR1 181451Z 24015KT 10/02 A2973 RMK A01 T00960019  RH  058%=      5-min Rain = 0
KBR1 181452Z 24014KT 10/02 A2973 RMK A01 T00960018  RH  058%=      5-min Rain = 0
KBR1 181453Z 24017G24KT 10/02 A2973 RMK A01 T00960019  RH  059%=      5-min Rain = 0
KBR1 181454Z 25020G25KT 10/02 A2973 RMK A01 T00970019  RH  058%=      5-min Rain = 0
KBR1 181455Z 24019KT 10/02 A2973 RMK A01 T00970019  RH  058%=      5-min Rain = 0
KBR1 181456Z 25017KT 10/02 A2973 RMK A01 T00970018  RH  058%=      5-min Rain = 0
KBR1 181457Z 24015KT 10/02 A2973 RMK A01 T00980019  RH  058%=      5-min Rain = 0
KBR1 181458Z 24015KT 10/02 A2974 RMK A01 T00970019  RH  058%=      5-min Rain = 0
KBR1 181459Z 24015KT 10/02 A2974 RMK A01 T00970019  RH  058%=      5-min Rain = 0
KBR1 181500Z 24016KT 10/02 A2973 RMK A01 T00970019  RH  058%=      5-min Rain = 0
KBR1 181501Z 24016KT 10/02 A2973 RMK A01 T00970019  RH  058%=      5-min Rain = 0
KBR1 181502Z 24018KT 10/02 A2973 RMK A01 T00970019  RH  058%=      5-min Rain = 0
KBR1 181503Z 25014G19KT 10/02 A2973 RMK A01 T00970019  RH  058%=      5-min Rain = 0
KBR1 181504Z 24015G21KT 10/02 A2973 RMK A01 T00970019  RH  058%=      5-min Rain = 0
KBR1 181505Z 24015KT 10/02 A2973 RMK A01 T00980020  RH  058%=      5-min Rain = 0
KBR1 181506Z 25013G18KT 10/02 A2973 RMK A01 T00980019  RH  058%=      5-min Rain = 0
KBR1 181507Z 24013KT 10/02 A2973 RMK A01 T00980020  RH  058%=      5-min Rain = 0
KBR1 181508Z 24013KT 10/02 A2973 RMK A01 T00980020  RH  058%=      5-min Rain = 0
KBR1 181509Z 25014KT 10/02 A2973 RMK A01 T00980020  RH  058%=      5-min Rain = 0
KBR1 181510Z 25015KT 10/02 A2973 RMK A01 T00980020  RH  058%=      5-min Rain = 0
KBR1 181511Z 25015G20KT 10/02 A2973 RMK A01 T00980020  RH  058%=      5-min Rain = 0
KBR1 181512Z 25016KT 10/02 A2973 RMK A01 T00990020  RH  058%=      5-min Rain = 0
KBR1 181513Z 24017KT 10/02 A2973 RMK A01 T00990020  RH  058%=      5-min Rain = 0
KBR1 181514Z 25013KT 10/02 A2973 RMK A01 T01000021  RH  058%=      5-min Rain = 0
KBR1 181515Z 25014G19KT 10/02 A2973 RMK A01 T00990021  RH  058%=      5-min Rain = 0
KBR1 181516Z 24014KT 10/02 A2973 RMK A01 T00990021  RH  058%=      5-min Rain = 0
KBR1 181517Z 24013KT 10/02 A2973 RMK A01 T00990021  RH  058%=      5-min Rain = 0
KBR1 181518Z 24013KT 10/02 A2973 RMK A01 T00990021  RH  058%=      5-min Rain = 0
KBR1 181519Z 25013KT 10/02 A2973 RMK A01 T01000021  RH  058%=      5-min Rain = 0
KBR1 181520Z 24015G21KT 10/02 A2973 RMK A01 T00990021  RH  058%=      5-min Rain = 0
KBR1 181521Z 24017KT 10/02 A2973 RMK A01 T01000021  RH  058%=      5-min Rain = 0
KBR1 181522Z 24014G20KT 10/02 A2973 RMK A01 T01010022  RH  058%=      5-min Rain = 0
KBR1 181523Z 24016KT 10/02 A2973 RMK A01 T01000022  RH  058%=      5-min Rain = 0
KBR1 181524Z 24016KT 10/02 A2973 RMK A01 T01010022  RH  058%=      5-min Rain = 0
KBR1 181525Z 24016KT 10/02 A2973 RMK A01 T01000022  RH  058%=      5-min Rain = 0
KBR1 181526Z 24015KT 10/02 A2973 RMK A01 T01000022  RH  058%=      5-min Rain = 0
KBR1 181527Z 24013KT 10/02 A2973 RMK A01 T01010022  RH  058%=      5-min Rain = 0
KBR1 181528Z 24014KT 10/02 A2973 RMK A01 T01000023  RH  058%=      5-min Rain = 0
KBR1 181529Z 24012KT 10/02 A2973 RMK A01 T01000023  RH  058%=      5-min Rain = 0
KBR1 181530Z 24012KT 10/02 A2973 RMK A01 T01000023  RH  058%=      5-min Rain = 0
KBR1 181531Z 24012KT 10/02 A2973 RMK A01 T01010023  RH  058%=      5-min Rain = 0
KBR1 181532Z 24013KT 10/02 A2973 RMK A01 T01010023  RH  058%=      5-min Rain = 0
KBR1 181533Z 25012KT 10/02 A2973 RMK A01 T01000023  RH  059%=      5-min Rain = 0
KBR1 181534Z 25013KT 10/02 A2973 RMK A01 T01000023  RH  059%=      5-min Rain = 0
KBR1 181535Z 25013KT 10/02 A2973 RMK A01 T01000023  RH  059%=      5-min Rain = 0
KBR1 181536Z 25015KT 10/02 A2973 RMK A01 T01000023  RH  059%=      5-min Rain = 0
KBR1 181537Z 25012KT 10/02 A2973 RMK A01 T01010024  RH  059%=      5-min Rain = 0
KBR1 181538Z 25013KT 10/02 A2973 RMK A01 T01000024  RH  059%=      5-min Rain = 0
KBR1 181539Z 25012KT 10/02 A2973 RMK A01 T01000023  RH  059%=      5-min Rain = 0
KBR1 181540Z 26011KT 10/02 A2973 RMK A01 T01000024  RH  059%=      5-min Rain = 0
KBR1 181541Z 25011KT 10/02 A2973 RMK A01 T01010024  RH  059%=      5-min Rain = 0
KBR1 181542Z 26013KT 10/02 A2973 RMK A01 T01010024  RH  059%=      5-min Rain = 0
KBR1 181543Z 25012KT 10/03 A2973 RMK A01 T01010025  RH  059%=      5-min Rain = 0
KBR1 181544Z 26011KT 10/03 A2973 RMK A01 T01020026  RH  059%=      5-min Rain = 0
KBR1 181545Z 26013G18KT 10/03 A2973 RMK A01 T01020026  RH  059%=      5-min Rain = 0
KBR1 181546Z 25017KT 10/03 A2972 RMK A01 T01020026  RH  059%=      5-min Rain = 0
KBR1 181547Z 25016G21KT 10/03 A2972 RMK A01 T01030026  RH  059%=      5-min Rain = 0
KBR1 181548Z 25016KT 10/03 A2972 RMK A01 T01040027  RH  059%=      5-min Rain = 0
KBR1 181549Z 25018KT 11/03 A2972 RMK A01 T01050027  RH  059%=      5-min Rain = 0
KBR1 181550Z 25016G21KT 11/03 A2972 RMK A01 T01050027  RH  058%=      5-min Rain = 0
KBR1 181551Z 25018KT 11/03 A2972 RMK A01 T01050027  RH  058%=      5-min Rain = 0
KBR1 181552Z 25019KT 11/03 A2972 RMK A01 T01050027  RH  058%=      5-min Rain = 0
KBR1 181553Z 25014KT 11/03 A2972 RMK A01 T01060027  RH  058%=      5-min Rain = 0
KBR1 181554Z 24017G22KT 11/03 A2972 RMK A01 T01060028  RH  058%=      5-min Rain = 0
KBR1 181555Z 25016KT 11/03 A2972 RMK A01 T01050027  RH  058%=      5-min Rain = 0
KBR1 181556Z 24015G20KT 11/03 A2972 RMK A01 T01050027  RH  058%=      5-min Rain = 0
KBR1 181557Z 24019KT 11/03 A2971 RMK A01 T01060027  RH  058%=      5-min Rain = 0
KBR1 181558Z 25018KT 11/03 A2971 RMK A01 T01060027  RH  058%=      5-min Rain = 0
KBR1 181559Z 25018KT 11/03 A2971 RMK A01 T01060027  RH  058%=      5-min Rain = 0
KBR1 181600Z 25018KT 11/03 A2971 RMK A01 T01060027  RH  058%=      5-min Rain = 0
KBR1 181601Z 25018KT 11/03 A2971 RMK A01 T01060027  RH  058%=      5-min Rain = 0
KBR1 181602Z 25021KT 11/03 A2972 RMK A01 T01070027  RH  058%=      5-min Rain = 0
KBR1 181603Z 25020G26KT 11/03 A2972 RMK A01 T01070027  RH  057%=      5-min Rain = 0
KBR1 181604Z 25020G27KT 11/03 A2972 RMK A01 T01070027  RH  057%=      5-min Rain = 0
KBR1 181605Z 25023G28KT 11/03 A2972 RMK A01 T01080027  RH  057%=      5-min Rain = 0
KBR1 181606Z 25019KT 11/03 A2972 RMK A01 T01080026  RH  057%=      5-min Rain = 0
KBR1 181607Z 25024G30KT 11/03 A2972 RMK A01 T01080026  RH  057%=      5-min Rain = 0
KBR1 181608Z 25019KT 11/03 A2972 RMK A01 T01080026  RH  057%=      5-min Rain = 0
KBR1 181609Z 25024KT 11/03 A2972 RMK A01 T01080026  RH  057%=      5-min Rain = 0
KBR1 181610Z 25018KT 11/03 A2971 RMK A01 T01080026  RH  057%=      5-min Rain = 0
KBR1 181611Z 25019G24KT 11/03 A2971 RMK A01 T01080026  RH  057%=      5-min Rain = 0
KBR1 181612Z 25021KT 11/03 A2971 RMK A01 T01080026  RH  057%=      5-min Rain = 0
KBR1 181613Z 25020KT 11/03 A2971 RMK A01 T01080026  RH  057%=      5-min Rain = 0
KBR1 181614Z 25020KT 11/03 A2971 RMK A01 T01080026  RH  057%=      5-min Rain = 0
KBR1 181615Z 25018KT 11/03 A2971 RMK A01 T01080026  RH  057%=      5-min Rain = 0
KBR1 181616Z 25014G19KT 11/03 A2971 RMK A01 T01080026  RH  057%=      5-min Rain = 0
KBR1 181617Z 25018KT 11/03 A2971 RMK A01 T01090027  RH  057%=      5-min Rain = 0
KBR1 181618Z 25020KT 11/03 A2971 RMK A01 T01090026  RH  056%=      5-min Rain = 0
KBR1 181619Z 24017KT 11/03 A2971 RMK A01 T01090026  RH  056%=      5-min Rain = 0
KBR1 181620Z 25016G21KT 11/03 A2971 RMK A01 T01100026  RH  056%=      5-min Rain = 0
KBR1 181621Z 26017G22KT 11/03 A2971 RMK A01 T01100026  RH  056%=      5-min Rain = 0
KBR1 181622Z 25017KT 11/03 A2971 RMK A01 T01100026  RH  056%=      5-min Rain = 0
KBR1 181623Z 24017KT 11/03 A2971 RMK A01 T01110026  RH  056%=      5-min Rain = 0
KBR1 181624Z 25020G27KT 11/03 A2971 RMK A01 T01100025  RH  056%=      5-min Rain = 0
KBR1 181625Z 25018KT 11/03 A297 RMK A01 T01100025  RH  055%=      5-min Rain = 0
KBR1 181626Z 25019KT 11/03 A297 RMK A01 T01110025  RH  056%=      5-min Rain = 0
KBR1 181627Z 24019KT 11/03 A297 RMK A01 T01100025  RH  056%=      5-min Rain = 0
KBR1 181628Z 25022KT 11/03 A297 RMK A01 T01100025  RH  055%=      5-min Rain = 0
KBR1 181629Z 25021KT 11/02 A297 RMK A01 T01110024  RH  055%=      5-min Rain = 0
KBR1 181630Z 24018KT 11/03 A297 RMK A01 T01100025  RH  056%=      5-min Rain = 0
KBR1 181631Z 25019G24KT 11/03 A297 RMK A01 T01100025  RH  056%=      5-min Rain = 0
KBR1 181632Z 25020KT 11/02 A297 RMK A01 T01100024  RH  055%=      5-min Rain = 0
KBR1 181633Z 24020KT 11/02 A297 RMK A01 T01110024  RH  055%=      5-min Rain = 0
KBR1 181634Z 25018G24KT 11/02 A297 RMK A01 T01100024  RH  055%=      5-min Rain = 0
KBR1 181635Z 25015KT 11/02 A297 RMK A01 T01100024  RH  056%=      5-min Rain = 0
KBR1 181636Z 25019KT 11/02 A297 RMK A01 T01100024  RH  055%=      5-min Rain = 0
KBR1 181637Z 25018KT 11/02 A297 RMK A01 T01100024  RH  055%=      5-min Rain = 0
KBR1 181638Z 25022KT 11/02 A297 RMK A01 T01090024  RH  055%=      5-min Rain = 0
KBR1 181639Z 25022KT 11/02 A297 RMK A01 T01090023  RH  055%=      5-min Rain = 0
KBR1 181640Z 25022G27KT 11/02 A297 RMK A01 T01090023  RH  055%=      5-min Rain = 0
KBR1 181641Z 25020KT 11/02 A297 RMK A01 T01090023  RH  055%=      5-min Rain = 0
KBR1 181642Z 24019KT 11/02 A297 RMK A01 T01090023  RH  055%=      5-min Rain = 0
KBR1 181643Z 25018KT 11/02 A297 RMK A01 T01090023  RH  055%=      5-min Rain = 0
KBR1 181644Z 25020KT 11/02 A297 RMK A01 T01090023  RH  055%=      5-min Rain = 0
KBR1 181645Z 25021KT 11/02 A297 RMK A01 T01090022  RH  055%=      5-min Rain = 0
KBR1 181646Z 25020KT 11/02 A297 RMK A01 T01090022  RH  055%=      5-min Rain = 0
KBR1 181647Z 25020KT 11/02 A297 RMK A01 T01090022  RH  055%=      5-min Rain = 0
KBR1 181648Z 25021KT 11/02 A297 RMK A01 T01090022  RH  055%=      5-min Rain = 0
KBR1 181649Z 26021KT 11/02 A297 RMK A01 T01090022  RH  055%=      5-min Rain = 0
KBR1 181650Z 25019G24KT 11/02 A297 RMK A01 T01090022  RH  055%=      5-min Rain = 0
KBR1 181651Z 25020KT 11/02 A297 RMK A01 T01100022  RH  055%=      5-min Rain = 0
KBR1 181652Z 25015G20KT 11/02 A297 RMK A01 T01100022  RH  055%=      5-min Rain = 0
KBR1 181653Z 25020KT 11/02 A297 RMK A01 T01110022  RH  054%=      5-min Rain = 0
KBR1 181654Z 25019KT 11/02 A297 RMK A01 T01110021  RH  054%=      5-min Rain = 0
KBR1 181655Z 25016G21KT 11/02 A2971 RMK A01 T01110022  RH  054%=      5-min Rain = 0
KBR1 181656Z 25016KT 11/02 A2971 RMK A01 T01110022  RH  054%=      5-min Rain = 0
KBR1 181657Z 25015KT 11/02 A2971 RMK A01 T01110022  RH  054%=      5-min Rain = 0
KBR1 181658Z 25017KT 11/02 A2971 RMK A01 T01110021  RH  054%=      5-min Rain = 0
KBR1 181659Z 25014KT 11/02 A2971 RMK A01 T01110020  RH  054%=      5-min Rain = 0
KBR1 181700Z 25015KT 11/02 A2971 RMK A01 T01110021  RH  054%=      5-min Rain = 0
KBR1 181701Z 26014G19KT 11/02 A2971 RMK A01 T01120021  RH  053%=      5-min Rain = 0
KBR1 181702Z 25014KT 11/02 A2971 RMK A01 T01120021  RH  053%=      5-min Rain = 0
KBR1 181703Z 25014KT 11/02 A2971 RMK A01 T01120021  RH  053%=      5-min Rain = 0
KBR1 181704Z 25013KT 11/02 A2971 RMK A01 T01130021  RH  053%=      5-min Rain = 0
KBR1 181705Z 26012KT 11/02 A2971 RMK A01 T01140021  RH  053%=      5-min Rain = 0
KBR1 181706Z 25014KT 12/02 A297 RMK A01 T01150021  RH  053%=      5-min Rain = 0
KBR1 181707Z 25012KT 12/02 A297 RMK A01 T01160021  RH  052%=      5-min Rain = 0
KBR1 181708Z 25014KT 12/02 A297 RMK A01 T01170021  RH  052%=      5-min Rain = 0
KBR1 181709Z 25011KT 12/02 A297 RMK A01 T01170021  RH  051%=      5-min Rain = 0
KBR1 181710Z 25016G21KT 12/02 A297 RMK A01 T01180020  RH  051%=      5-min Rain = 0
KBR1 181711Z 25020KT 12/02 A297 RMK A01 T01190018  RH  050%=      5-min Rain = 0
KBR1 181712Z 24020G26KT 12/02 A297 RMK A01 T01200018  RH  050%=      5-min Rain = 0
KBR1 181713Z 25018KT 12/02 A297 RMK A01 T01210017  RH  049%=      5-min Rain = 0
KBR1 181714Z 26020KT 12/02 A297 RMK A01 T01210017  RH  049%=      5-min Rain = 0
KBR1 181715Z 25018KT 12/02 A297 RMK A01 T01220017  RH  049%=      5-min Rain = 0
KBR1 181716Z 25017KT 12/02 A297 RMK A01 T01220017  RH  049%=      5-min Rain = 0
KBR1 181717Z 26021KT 12/02 A297 RMK A01 T01230018  RH  049%=      5-min Rain = 0
KBR1 181718Z 25016KT 12/02 A297 RMK A01 T01230017  RH  048%=      5-min Rain = 0
KBR1 181719Z 25019KT 12/02 A297 RMK A01 T01240017  RH  048%=      5-min Rain = 0
KBR1 181720Z 25018KT 12/02 A297 RMK A01 T01240017  RH  048%=      5-min Rain = 0
KBR1 181721Z 25020KT 13/02 A297 RMK A01 T01250016  RH  047%=      5-min Rain = 0
KBR1 181722Z 25019KT 13/02 A297 RMK A01 T01260015  RH  047%=      5-min Rain = 0
KBR1 181723Z 25017KT 13/02 A297 RMK A01 T01270015  RH  047%=      5-min Rain = 0
KBR1 181724Z 25022KT 13/02 A297 RMK A01 T01270015  RH  046%=      5-min Rain = 0
KBR1 181725Z 25019KT 13/01 A297 RMK A01 T01280014  RH  046%=      5-min Rain = 0
KBR1 181726Z 25021G27KT 13/02 A297 RMK A01 T01290015  RH  046%=      5-min Rain = 0
KBR1 181727Z 25018G24KT 13/01 A2969 RMK A01 T01300014  RH  045%=      5-min Rain = 0
KBR1 181728Z 25019G24KT 13/02 A2969 RMK A01 T01310015  RH  045%=      5-min Rain = 0
KBR1 181729Z 25021G28KT 13/02 A297 RMK A01 T01340016  RH  045%=      5-min Rain = 0
KBR1 181730Z 25025KT 13/01 A297 RMK A01 T01330012  RH  044%=      5-min Rain = 0
KBR1 181731Z 25021KT 13/01 A297 RMK A01 T01300011  RH  044%=      5-min Rain = 0
KBR1 181732Z 24020G25KT 13/01 A297 RMK A01 T01290013  RH  045%=      5-min Rain = 0
KBR1 181733Z 24024G30KT 13/01 A2969 RMK A01 T01280012  RH  045%=      5-min Rain = 0
KBR1 181734Z 24018KT 13/01 A2969 RMK A01 T01270012  RH  045%=      5-min Rain = 0
KBR1 181735Z 25019KT 13/01 A2969 RMK A01 T01270013  RH  046%=      5-min Rain = 0
KBR1 181736Z 25018G23KT 13/01 A2969 RMK A01 T01270014  RH  046%=      5-min Rain = 0
KBR1 181737Z 25019KT 13/01 A2969 RMK A01 T01270013  RH  046%=      5-min Rain = 0
KBR1 181738Z 24019KT 13/01 A2969 RMK A01 T01270013  RH  046%=      5-min Rain = 0
KBR1 181739Z 25018KT 13/01 A2969 RMK A01 T01270013  RH  046%=      5-min Rain = 0
KBR1 181740Z 25017KT 13/01 A2969 RMK A01 T01260013  RH  046%=      5-min Rain = 0
KBR1 181741Z 25018KT 13/01 A2969 RMK A01 T01260013  RH  046%=      5-min Rain = 0
KBR1 181742Z 25017KT 13/01 A2969 RMK A01 T01260013  RH  046%=      5-min Rain = 0
KBR1 181743Z 25015KT 13/01 A2969 RMK A01 T01260013  RH  046%=      5-min Rain = 0
KBR1 181744Z 25015KT 13/01 A2969 RMK A01 T01260014  RH  046%=      5-min Rain = 0
KBR1 181745Z 24015KT 13/01 A2968 RMK A01 T01280014  RH  046%=      5-min Rain = 0
KBR1 181746Z 25016KT 13/01 A2968 RMK A01 T01300014  RH  045%=      5-min Rain = 0
KBR1 181747Z 24016KT 13/01 A2968 RMK A01 T01330014  RH  044%=      5-min Rain = 0
KBR1 181748Z 24017KT 13/01 A2968 RMK A01 T01340013  RH  043%=      5-min Rain = 0
KBR1 181749Z 24014KT 14/01 A2968 RMK A01 T01360011  RH  043%=      5-min Rain = 0
KBR1 181750Z 24013KT 14/01 A2968 RMK A01 T01370013  RH  043%=      5-min Rain = 0
KBR1 181751Z 25014G19KT 14/02 A2968 RMK A01 T01400016  RH  043%=      5-min Rain = 0
KBR1 181752Z 25018G23KT 14/02 A2968 RMK A01 T01440015  RH  042%=      5-min Rain = 0
KBR1 181753Z 26015G20KT 14/01 A2967 RMK A01 T01440013  RH  041%=      5-min Rain = 0
KBR1 181754Z 26020KT 15/01 A2967 RMK A01 T01480013  RH  040%=      5-min Rain = 0
KBR1 181755Z 25018KT 15/01 A2967 RMK A01 T01500010  RH  039%=      5-min Rain = 0
KBR1 181756Z 26020KT 15/01 A2968 RMK A01 T01520008  RH  038%=      5-min Rain = 0
KBR1 181757Z 26015KT 15/01 A2967 RMK A01 T01490007  RH  038%=      5-min Rain = 0
KBR1 181758Z 26020KT 15/01 A2967 RMK A01 T01470006  RH  038%=      5-min Rain = 0
KBR1 181759Z 26018KT 14/00 A2967 RMK A01 T01440001  RH  038%=      5-min Rain = 0
KBR1 181800Z 26018KT 14/00 A2968 RMK A01 T01420003  RH  039%=      5-min Rain = 0
KBR1 181801Z 26017KT 14/00 A2968 RMK A01 T01440004  RH  039%=      5-min Rain = 0
KBR1 181802Z 25021KT 15/00 A2967 RMK A01 T01450002  RH  038%=      5-min Rain = 0
KBR1 181803Z 25021KT 15/M00 A2967 RMK A01 T01461003  RH  036%=      5-min Rain = 0
KBR1 181804Z 25021G26KT 15/M01 A2967 RMK A01 T01461005  RH  035%=      5-min Rain = 0
KBR1 181805Z 26022KT 15/M00 A2967 RMK A01 T01491004  RH  035%=      5-min Rain = 0
KBR1 181806Z 26022G29KT 15/M00 A2967 RMK A01 T01501004  RH  035%=      5-min Rain = 0
KBR1 181807Z 27022KT 15/M01 A2967 RMK A01 T01521008  RH  034%=      5-min Rain = 0
KBR1 181808Z 27021KT 15/M01 A2967 RMK A01 T01511009  RH  033%=      5-min Rain = 0
KBR1 181809Z 27021KT 15/M01 A2967 RMK A01 T01501011  RH  033%=      5-min Rain = 0
KBR1 181810Z 27017G23KT 15/M01 A2967 RMK A01 T01491010  RH  034%=      5-min Rain = 0
KBR1 181811Z 27020KT 15/M01 A2967 RMK A01 T01491009  RH  034%=      5-min Rain = 0
KBR1 181812Z 26018KT 15/M01 A2967 RMK A01 T01491010  RH  033%=      5-min Rain = 0
KBR1 181813Z 26016G22KT 15/M01 A2967 RMK A01 T01501009  RH  034%=      5-min Rain = 0
KBR1 181814Z 26019KT 15/M01 A2966 RMK A01 T01531009  RH  033%=      5-min Rain = 0
KBR1 181815Z 26018G24KT 16/M01 A2966 RMK A01 T01551009  RH  032%=      5-min Rain = 0
KBR1 181816Z 26020KT 16/M01 A2966 RMK A01 T01571010  RH  032%=      5-min Rain = 0
KBR1 181817Z 26020KT 16/M01 A2966 RMK A01 T01591012  RH  031%=      5-min Rain = 0
KBR1 181818Z 26024KT 16/M01 A2966 RMK A01 T01611012  RH  031%=      5-min Rain = 0
KBR1 181819Z 26022KT 16/M02 A2966 RMK A01 T01601015  RH  030%=      5-min Rain = 0
KBR1 181820Z 26020KT 16/M02 A2966 RMK A01 T01601015  RH  030%=      5-min Rain = 0
KBR1 181821Z 25018KT 16/M01 A2965 RMK A01 T01601014  RH  030%=      5-min Rain = 0
KBR1 181822Z 25019KT 16/M01 A2965 RMK A01 T01621014  RH  030%=      5-min Rain = 0
KBR1 181823Z 26018KT 16/M02 A2965 RMK A01 T01621016  RH  030%=      5-min Rain = 0
KBR1 181824Z 26019KT 16/M02 A2965 RMK A01 T01621016  RH  030%=      5-min Rain = 0
KBR1 181825Z 27020KT 16/M02 A2965 RMK A01 T01631021  RH  028%=      5-min Rain = 0
KBR1 181826Z 27022KT 17/M02 A2965 RMK A01 T01651024  RH  027%=      5-min Rain = 0
KBR1 181827Z 26019G24KT 17/M03 A2965 RMK A01 T01651026  RH  027%=      5-min Rain = 0
KBR1 181828Z 27018KT 17/M02 A2965 RMK A01 T01671024  RH  027%=      5-min Rain = 0
KBR1 181829Z 28020KT 17/M03 A2965 RMK A01 T01711026  RH  026%=      5-min Rain = 0
KBR1 181830Z 27019KT 17/M03 A2965 RMK A01 T01721032  RH  025%=      5-min Rain = 0
KBR1 181831Z 27018G24KT 17/M03 A2965 RMK A01 T01691033  RH  025%=      5-min Rain = 0
KBR1 181832Z 27021KT 17/M03 A2965 RMK A01 T01691031  RH  025%=      5-min Rain = 0
KBR1 181833Z 28018KT 17/M03 A2965 RMK A01 T01691030  RH  025%=      5-min Rain = 0
KBR1 181834Z 28017KT 17/M04 A2965 RMK A01 T01691035  RH  025%=      5-min Rain = 0
KBR1 181835Z 27019KT 17/M03 A2965 RMK A01 T01711034  RH  024%=      5-min Rain = 0
KBR1 181836Z 26014KT 17/M04 A2964 RMK A01 T01701038  RH  024%=      5-min Rain = 0
KBR1 181837Z 26019KT 17/M03 A2964 RMK A01 T01691034  RH  025%=      5-min Rain = 0
KBR1 181838Z 26016KT 17/M03 A2964 RMK A01 T01691031  RH  025%=      5-min Rain = 0
KBR1 181839Z 25019G24KT 17/M03 A2964 RMK A01 T01711030  RH  025%=      5-min Rain = 0
KBR1 181840Z 26016G21KT 17/M03 A2964 RMK A01 T01721030  RH  025%=      5-min Rain = 0
KBR1 181841Z 27019KT 18/M03 A2964 RMK A01 T01751029  RH  025%=      5-min Rain = 0
KBR1 181842Z 25019G24KT 18/M03 A2963 RMK A01 T01751031  RH  024%=      5-min Rain = 0
KBR1 181843Z 26019KT 17/M03 A2963 RMK A01 T01741032  RH  024%=      5-min Rain = 0
KBR1 181844Z 27022KT 17/M03 A2963 RMK A01 T01741034  RH  024%=      5-min Rain = 0
KBR1 181845Z 26021KT 17/M04 A2963 RMK A01 T01741036  RH  024%=      5-min Rain = 0
KBR1 181846Z 26021G26KT 17/M04 A2963 RMK A01 T01741036  RH  024%=      5-min Rain = 0
KBR1 181847Z 27017KT 17/M04 A2963 RMK A01 T01731041  RH  023%=      5-min Rain = 0
KBR1 181848Z 26021KT 17/M04 A2963 RMK A01 T01731038  RH  023%=      5-min Rain = 0
KBR1 181849Z 26021KT 17/M04 A2963 RMK A01 T01741040  RH  023%=      5-min Rain = 0
KBR1 181850Z 26015G21KT 17/M04 A2963 RMK A01 T01741040  RH  023%=      5-min Rain = 0
KBR1 181851Z 27018KT 18/M04 A2963 RMK A01 T01771040  RH  022%=      5-min Rain = 0
KBR1 181852Z 25024KT 18/M05 A2963 RMK A01 T01791047  RH  021%=      5-min Rain = 0
KBR1 181853Z 25024G30KT 18/M05 A2963 RMK A01 T01771052  RH  020%=      5-min Rain = 0
KBR1 181854Z 27021G29KT 18/M06 A2963 RMK A01 T01771055  RH  020%=      5-min Rain = 0
KBR1 181855Z 26021KT 18/M06 A2963 RMK A01 T01761055  RH  020%=      5-min Rain = 0
KBR1 181856Z 26022G29KT 18/M06 A2963 RMK A01 T01781056  RH  020%=      5-min Rain = 0
KBR1 181857Z 27017KT 18/M06 A2963 RMK A01 T01781057  RH  020%=      5-min Rain = 0
KBR1 181858Z 27022G27KT 18/M06 A2962 RMK A01 T01801055  RH  020%=      5-min Rain = 0
KBR1 181859Z 27020KT 18/M05 A2962 RMK A01 T01811050  RH  020%=      5-min Rain = 0
KBR1 181900Z 25018KT 18/M05 A2962 RMK A01 T01801048  RH  021%=      5-min Rain = 0
KBR1 181901Z 24024KT 18/M05 A2962 RMK A01 T01801049  RH  021%=      5-min Rain = 0
KBR1 181902Z 26018KT 18/M05 A2962 RMK A01 T01781052  RH  020%=      5-min Rain = 0
KBR1 181903Z 26015KT 18/M05 A2962 RMK A01 T01771051  RH  021%=      5-min Rain = 0
KBR1 181904Z 25018G23KT 18/M05 A2962 RMK A01 T01781049  RH  021%=      5-min Rain = 0
KBR1 181905Z 26019KT 18/M05 A2962 RMK A01 T01801053  RH  020%=      5-min Rain = 0
KBR1 181906Z 26017G22KT 18/M05 A2962 RMK A01 T01801053  RH  020%=      5-min Rain = 0
KBR1 181907Z 25019KT 18/M06 A2962 RMK A01 T01811058  RH  019%=      5-min Rain = 0
KBR1 181908Z 25018KT 18/M06 A2962 RMK A01 T01791057  RH  019%=      5-min Rain = 0
KBR1 181909Z 25018G25KT 18/M06 A2962 RMK A01 T01781062  RH  019%=      5-min Rain = 0
KBR1 181910Z 24020KT 18/M06 A2962 RMK A01 T01771060  RH  019%=      5-min Rain = 0
KBR1 181911Z 25021KT 18/M06 A2962 RMK A01 T01781059  RH  019%=      5-min Rain = 0
KBR1 181912Z 26018KT 18/M06 A2962 RMK A01 T01791057  RH  020%=      5-min Rain = 0
KBR1 181913Z 25019KT 18/M06 A2962 RMK A01 T01791056  RH  020%=      5-min Rain = 0
KBR1 181914Z 26016G21KT 18/M05 A2962 RMK A01 T01801053  RH  020%=      5-min Rain = 0
KBR1 181915Z 25017KT 18/M05 A2962 RMK A01 T01791053  RH  020%=      5-min Rain = 0
KBR1 181916Z 26015G20KT 18/M05 A2961 RMK A01 T01791050  RH  021%=      5-min Rain = 0
KBR1 181917Z 25018KT 18/M05 A2961 RMK A01 T01801045  RH  021%=      5-min Rain = 0
KBR1 181918Z 24016KT 18/M05 A2961 RMK A01 T01791047  RH  021%=      5-min Rain = 0
KBR1 181919Z 26012KT 18/M04 A2961 RMK A01 T01771044  RH  022%=      5-min Rain = 0
KBR1 181920Z 26016KT 18/M05 A2961 RMK A01 T01771049  RH  021%=      5-min Rain = 0
KBR1 181921Z 26016KT 18/M06 A2961 RMK A01 T01781059  RH  019%=      5-min Rain = 0
KBR1 181922Z 25017KT 18/M06 A296 RMK A01 T01811060  RH  019%=      5-min Rain = 0
KBR1 181923Z 25016KT 18/M06 A296 RMK A01 T01831057  RH  019%=      5-min Rain = 0
KBR1 181924Z 26020KT 19/M06 A296 RMK A01 T01861058  RH  019%=      5-min Rain = 0
KBR1 181925Z 26023KT 18/M07 A296 RMK A01 T01831068  RH  018%=      5-min Rain = 0
KBR1 181926Z 26021KT 18/M07 A296 RMK A01 T01801069  RH  018%=      5-min Rain = 0
KBR1 181927Z 25019G25KT 18/M06 A296 RMK A01 T01811064  RH  018%=      5-min Rain = 0
KBR1 181928Z 25024G29KT 18/M07 A296 RMK A01 T01831067  RH  018%=      5-min Rain = 0
KBR1 181929Z 25020G25KT 18/M07 A296 RMK A01 T01821072  RH  017%=      5-min Rain = 0
KBR1 181930Z 26020KT 18/M08 A296 RMK A01 T01821075  RH  017%=      5-min Rain = 0
KBR1 181931Z 26023KT 18/M08 A2959 RMK A01 T01811075  RH  017%=      5-min Rain = 0
KBR1 181932Z 27020KT 18/M08 A2959 RMK A01 T01791077  RH  017%=      5-min Rain = 0
KBR1 181933Z 26021KT 18/M08 A2959 RMK A01 T01781078  RH  017%=      5-min Rain = 0
KBR1 181934Z 25021KT 18/M08 A2959 RMK A01 T01791078  RH  017%=      5-min Rain = 0
KBR1 181935Z 25020KT 18/M08 A2959 RMK A01 T01791076  RH  017%=      5-min Rain = 0
KBR1 181936Z 25019KT 18/M08 A2959 RMK A01 T01811076  RH  017%=      5-min Rain = 0
KBR1 181937Z 25020KT 18/M08 A2959 RMK A01 T01821075  RH  017%=      5-min Rain = 0
KBR1 181938Z 25021G26KT 18/M08 A2959 RMK A01 T01831075  RH  017%=      5-min Rain = 0
KBR1 181939Z 24023KT 18/M08 A2959 RMK A01 T01821076  RH  016%=      5-min Rain = 0
KBR1 181940Z 26023G28KT 18/M08 A2959 RMK A01 T01801081  RH  016%=      5-min Rain = 0
KBR1 181941Z 26018KT 18/M08 A2959 RMK A01 T01761083  RH  016%=      5-min Rain = 0
KBR1 181942Z 25020G25KT 18/M08 A2959 RMK A01 T01751078  RH  017%=      5-min Rain = 0
KBR1 181943Z 25021KT 17/M08 A2959 RMK A01 T01741080  RH  017%=      5-min Rain = 0
KBR1 181944Z 25022KT 17/M08 A2959 RMK A01 T01711078  RH  017%=      5-min Rain = 0
KBR1 181945Z 25017G22KT 17/M08 A2959 RMK A01 T01701075  RH  018%=      5-min Rain = 0
KBR1 181946Z 25021G26KT 17/M08 A2959 RMK A01 T01701077  RH  018%=      5-min Rain = 0
KBR1 181947Z 25018KT 17/M08 A2959 RMK A01 T01701078  RH  018%=      5-min Rain = 0
KBR1 181948Z 25020G26KT 17/M08 A2959 RMK A01 T01701077  RH  018%=      5-min Rain = 0
KBR1 181949Z 25019G24KT 17/M08 A2959 RMK A01 T01711078  RH  018%=      5-min Rain = 0
KBR1 181950Z 25019KT 17/M08 A2959 RMK A01 T01711082  RH  017%=      5-min Rain = 0
KBR1 181951Z 25019KT 17/M08 A2959 RMK A01 T01721083  RH  017%=      5-min Rain = 0
KBR1 181952Z 25019G24KT 17/M08 A2959 RMK A01 T01711083  RH  017%=      5-min Rain = 0
KBR1 181953Z 25017G22KT 17/M08 A2959 RMK A01 T01731081  RH  017%=      5-min Rain = 0
KBR1 181954Z 25020KT 18/M08 A2959 RMK A01 T01751083  RH  016%=      5-min Rain = 0
KBR1 181955Z 25022G27KT 17/M09 A2959 RMK A01 T01741090  RH  016%=      5-min Rain = 0
KBR1 181956Z 24024KT 17/M09 A2958 RMK A01 T01721093  RH  015%=      5-min Rain = 0
KBR1 181957Z 25022KT 17/M09 A2958 RMK A01 T01721094  RH  015%=      5-min Rain = 0
KBR1 181958Z 26023G28KT 17/M09 A2959 RMK A01 T01731094  RH  015%=      5-min Rain = 0
KBR1 181959Z 27021G26KT 17/M10 A2958 RMK A01 T01741096  RH  015%=      5-min Rain = 0
KBR1 182000Z 27020KT 17/M10 A2958 RMK A01 T01741097  RH  015%=      5-min Rain = 0
KBR1 182001Z 26020KT 17/M10 A2958 RMK A01 T01741097  RH  015%=      5-min Rain = 0
KBR1 182002Z 26019KT 17/M10 A2958 RMK A01 T01741096  RH  015%=      5-min Rain = 0
KBR1 182003Z 26020KT 18/M10 A2958 RMK A01 T01751097  RH  015%=      5-min Rain = 0
KBR1 182004Z 26018KT 17/M10 A2958 RMK A01 T01741097  RH  015%=      5-min Rain = 0
KBR1 182005Z 28020KT 17/M10 A2958 RMK A01 T01741097  RH  015%=      5-min Rain = 0
KBR1 182006Z 27021KT 17/M10 A2958 RMK A01 T01731098  RH  015%=      5-min Rain = 0
KBR1 182007Z 28019KT 17/M10 A2958 RMK A01 T01731096  RH  015%=      5-min Rain = 0
KBR1 182008Z 27018KT 17/M10 A2958 RMK A01 T01721096  RH  015%=      5-min Rain = 0
KBR1 182009Z 27020KT 17/M10 A2958 RMK A01 T01721097  RH  015%=      5-min Rain = 0
KBR1 182010Z 27019KT 17/M10 A2958 RMK A01 T01711097  RH  015%=      5-min Rain = 0
KBR1 182011Z 26019KT 17/M10 A2958 RMK A01 T01711096  RH  015%=      5-min Rain = 0
KBR1 182012Z 26018KT 17/M10 A2958 RMK A01 T01701095  RH  015%=      5-min Rain = 0
KBR1 182013Z 27020KT 17/M10 A2958 RMK A01 T01701095  RH  015%=      5-min Rain = 0
KBR1 182014Z 27018KT 17/M10 A2958 RMK A01 T01691095  RH  016%=      5-min Rain = 0
KBR1 182015Z 27020KT 17/M09 A2958 RMK A01 T01691093  RH  016%=      5-min Rain = 0
KBR1 182016Z 26023G31KT 17/M09 A2958 RMK A01 T01691093  RH  016%=      5-min Rain = 0
KBR1 182017Z 26025G30KT 17/M10 A2958 RMK A01 T01671096  RH  016%=      5-min Rain = 0
KBR1 182018Z 27019G24KT 17/M10 A2958 RMK A01 T01661095  RH  016%=      5-min Rain = 0
KBR1 182019Z 26021G26KT 17/M09 A2958 RMK A01 T01661092  RH  016%=      5-min Rain = 0
KBR1 182020Z 26022G27KT 17/M09 A2958 RMK A01 T01651093  RH  016%=      5-min Rain = 0
KBR1 182021Z 26026G31KT 16/M10 A2958 RMK A01 T01641095  RH  016%=      5-min Rain = 0
KBR1 182022Z 26024G29KT 16/M10 A2958 RMK A01 T01631095  RH  016%=      5-min Rain = 0
KBR1 182023Z 26023KT 16/M10 A2958 RMK A01 T01631096  RH  016%=      5-min Rain = 0
KBR1 182024Z 26020G26KT 16/M09 A2958 RMK A01 T01631094  RH  016%=      5-min Rain = 0
KBR1 182025Z 26024KT 16/M09 A2958 RMK A01 T01631094  RH  016%=      5-min Rain = 0
KBR1 182026Z 27017KT 16/M09 A2958 RMK A01 T01631094  RH  016%=      5-min Rain = 0
KBR1 182027Z 27017G23KT 16/M09 A2958 RMK A01 T01641090  RH  017%=      5-min Rain = 0
KBR1 182028Z 27023KT 16/M09 A2959 RMK A01 T01641091  RH  017%=      5-min Rain = 0
KBR1 182029Z 27019KT 16/M09 A2959 RMK A01 T01631090  RH  017%=      5-min Rain = 0
KBR1 182030Z 27022KT 16/M09 A2959 RMK A01 T01631089  RH  017%=      5-min Rain = 0
KBR1 182031Z 28019G24KT 16/M09 A2959 RMK A01 T01621090  RH  017%=      5-min Rain = 0
KBR1 182032Z 27020G27KT 16/M09 A2959 RMK A01 T01611089  RH  017%=      5-min Rain = 0
KBR1 182033Z 27018KT 16/M09 A2959 RMK A01 T01611090  RH  017%=      5-min Rain = 0
KBR1 182034Z 27018KT 16/M09 A2959 RMK A01 T01601088  RH  017%=      5-min Rain = 0
KBR1 182035Z 27020KT 16/M09 A2959 RMK A01 T01601089  RH  017%=      5-min Rain = 0
KBR1 182036Z 27019G25KT 16/M09 A2959 RMK A01 T01591088  RH  017%=      5-min Rain = 0
KBR1 182037Z 27018KT 16/M09 A2959 RMK A01 T01581087  RH  018%=      5-min Rain = 0
KBR1 182038Z 28022G27KT 16/M09 A2959 RMK A01 T01581085  RH  018%=      5-min Rain = 0
KBR1 182039Z 30021KT 16/M08 A296 RMK A01 T01571078  RH  019%=      5-min Rain = 0
KBR1 182040Z 31018KT 16/M06 A2959 RMK A01 T01571063  RH  022%=      5-min Rain = 0
KBR1 182041Z 32016KT 16/M06 A2959 RMK A01 T01561059  RH  022%=      5-min Rain = 0
KBR1 182042Z 31020G32KT 16/M06 A296 RMK A01 T01551059  RH  022%=      5-min Rain = 0
KBR1 182043Z 30017G25KT 16/M06 A2959 RMK A01 T01551062  RH  022%=      5-min Rain = 0
KBR1 182044Z 31020G27KT 16/M05 A296 RMK A01 T01551052  RH  024%=      5-min Rain = 0
KBR1 182045Z 31025KT 15/M04 A296 RMK A01 T01541039  RH  026%=      5-min Rain = 0
KBR1 182046Z 32022G27KT 15/M03 A296 RMK A01 T01521033  RH  028%=      5-min Rain = 0
KBR1 182047Z 33020G25KT 15/M03 A296 RMK A01 T01511030  RH  029%=      5-min Rain = 0
KBR1 182048Z 33019KT 15/M03 A2961 RMK A01 T01491027  RH  030%=      5-min Rain = 0
KBR1 182049Z 34016KT 15/M03 A2961 RMK A01 T01481026  RH  030%=      5-min Rain = 0
KBR1 182050Z 34018KT 15/M03 A296 RMK A01 T01481025  RH  030%=      5-min Rain = 0
KBR1 182051Z 34018KT 15/M02 A296 RMK A01 T01471024  RH  031%=      5-min Rain = 0
KBR1 182052Z 34017KT 15/M02 A2961 RMK A01 T01461024  RH  031%=      5-min Rain = 0
KBR1 182053Z 34017KT 15/M02 A2961 RMK A01 T01461023  RH  031%=      5-min Rain = 0
KBR1 182054Z 34017KT 15/M02 A2961 RMK A01 T01451023  RH  031%=      5-min Rain = 0
KBR1 182055Z 33018G23KT 15/M02 A2961 RMK A01 T01451023  RH  031%=      5-min Rain = 0
KBR1 182056Z 33020KT 15/M02 A2962 RMK A01 T01451023  RH  031%=      5-min Rain = 0
KBR1 182057Z 32017G22KT 14/M02 A2962 RMK A01 T01441024  RH  031%=      5-min Rain = 0
KBR1 182058Z 32019KT 14/M03 A2962 RMK A01 T01421025  RH  031%=      5-min Rain = 0
KBR1 182059Z 32019KT 14/M03 A2962 RMK A01 T01411026  RH  032%=      5-min Rain = 0
KBR1 182100Z 32018G25KT 14/M03 A2962 RMK A01 T01391026  RH  032%=      5-min Rain = 0
KBR1 182101Z 32019KT 14/M03 A2962 RMK A01 T01391026  RH  032%=      5-min Rain = 0
KBR1 182102Z 33022KT 14/M03 A2963 RMK A01 T01381026  RH  032%=      5-min Rain = 0
KBR1 182103Z 33017KT 14/M03 A2963 RMK A01 T01381027  RH  032%=      5-min Rain = 0
KBR1 182104Z 32017KT 14/M02 A2963 RMK A01 T01371020  RH  034%=      5-min Rain = 0
KBR1 182105Z 32017KT 13/M01 A2963 RMK A01 T01331012  RH  037%=      5-min Rain = 0
KBR1 182106Z 33016KT 13/M01 A2963 RMK A01 T01311010  RH  038%=      5-min Rain = 0
KBR1 182107Z 33018G23KT 13/M01 A2963 RMK A01 T01301011  RH  038%=      5-min Rain = 0
KBR1 182108Z 33015KT 13/M01 A2963 RMK A01 T01301013  RH  037%=      5-min Rain = 0
KBR1 182109Z 33014G19KT 13/M01 A2963 RMK A01 T01301011  RH  038%=      5-min Rain = 0
KBR1 182110Z 33014KT 13/M01 A2963 RMK A01 T01301008  RH  038%=      5-min Rain = 0
KBR1 182111Z 34020G25KT 13/M01 A2963 RMK A01 T01301011  RH  038%=      5-min Rain = 0
KBR1 182112Z 34017KT 13/M02 A2963 RMK A01 T01311016  RH  036%=      5-min Rain = 0
KBR1 182113Z 34017KT 13/M02 A2963 RMK A01 T01321017  RH  036%=      5-min Rain = 0
KBR1 182114Z 34016G23KT 13/M02 A2963 RMK A01 T01331016  RH  036%=      5-min Rain = 0
KBR1 182115Z 34021G26KT 13/M02 A2963 RMK A01 T01331015  RH  036%=      5-min Rain = 0
KBR1 182116Z 35021KT 13/M02 A2963 RMK A01 T01331016  RH  036%=      5-min Rain = 0
KBR1 182117Z 35024G30KT 13/M02 A2963 RMK A01 T01331015  RH  036%=      5-min Rain = 0
KBR1 182118Z 35022KT 13/M01 A2963 RMK A01 T01331014  RH  036%=      5-min Rain = 0
KBR1 182119Z 35025KT 13/M01 A2964 RMK A01 T01331014  RH  036%=      5-min Rain = 0
KBR1 182120Z 35023G28KT 13/M01 A2964 RMK A01 T01341014  RH  036%=      5-min Rain = 0
KBR1 182121Z 35023KT 13/M01 A2964 RMK A01 T01341014  RH  036%=      5-min Rain = 0
KBR1 182122Z 35021KT 13/M01 A2964 RMK A01 T01341014  RH  036%=      5-min Rain = 0
KBR1 182123Z 35020KT 14/M01 A2964 RMK A01 T01351013  RH  036%=      5-min Rain = 0
KBR1 182124Z 35019G24KT 14/M01 A2964 RMK A01 T01351013  RH  036%=      5-min Rain = 0
KBR1 182125Z 35021G27KT 14/M01 A2964 RMK A01 T01361011  RH  036%=      5-min Rain = 0
KBR1 182126Z 35024KT 14/M01 A2964 RMK A01 T01361013  RH  036%=      5-min Rain = 0
KBR1 182127Z 36024G32KT 14/M01 A2964 RMK A01 T01361013  RH  036%=      5-min Rain = 0
KBR1 182128Z 35030G35KT 14/M02 A2964 RMK A01 T01351015  RH  035%=      5-min Rain = 0
KBR1 182129Z 36030KT 13/M02 A2964 RMK A01 T01321018  RH  035%=      5-min Rain = 0
KBR1 182130Z 35026KT 13/M02 A2964 RMK A01 T01291017  RH  036%=      5-min Rain = 0
KBR1 182131Z 35029G35KT 13/M01 A2964 RMK A01 T01271013  RH  038%=      5-min Rain = 0
KBR1 182132Z 35030KT 13/M01 A2964 RMK A01 T01251010  RH  039%=      5-min Rain = 0
KBR1 182133Z 35027G33KT 12/M01 A2964 RMK A01 T01231009  RH  040%=      5-min Rain = 0
KBR1 182134Z 35028KT 12/M01 A2964 RMK A01 T01221010  RH  040%=      5-min Rain = 0
KBR1 182135Z 35026G32KT 12/M01 A2964 RMK A01 T01211010  RH  040%=      5-min Rain = 0
KBR1 182136Z 36029KT 12/M01 A2964 RMK A01 T01201013  RH  040%=      5-min Rain = 0
KBR1 182137Z 00027KT 12/M01 A2964 RMK A01 T01181011  RH  041%=      5-min Rain = 0
KBR1 182138Z 00027G34KT 12/M01 A2964 RMK A01 T01171007  RH  042%=      5-min Rain = 0
KBR1 182139Z 36030KT 12/M01 A2964 RMK A01 T01151009  RH  042%=      5-min Rain = 0
KBR1 182140Z 00026KT 11/M01 A2964 RMK A01 T01131011  RH  042%=      5-min Rain = 0
KBR1 182141Z 36025KT 11/M01 A2964 RMK A01 T01131012  RH  042%=      5-min Rain = 0
KBR1 182142Z 35023KT 11/M01 A2965 RMK A01 T01131013  RH  042%=      5-min Rain = 0
KBR1 182143Z 00027KT 11/M01 A2965 RMK A01 T01141013  RH  041%=      5-min Rain = 0
KBR1 182144Z 01029KT 12/M02 A2965 RMK A01 T01151015  RH  040%=      5-min Rain = 0
KBR1 182145Z 00029G35KT 12/M02 A2965 RMK A01 T01171015  RH  040%=      5-min Rain = 0
KBR1 182146Z 36029KT 12/M02 A2965 RMK A01 T01181016  RH  039%=      5-min Rain = 0
KBR1 182147Z 36022KT 12/M01 A2965 RMK A01 T01211014  RH  039%=      5-min Rain = 0
KBR1 182148Z 00024G30KT 13/M01 A2966 RMK A01 T01251012  RH  039%=      5-min Rain = 0
KBR1 182149Z 36025G33KT 13/M01 A2966 RMK A01 T01261013  RH  038%=      5-min Rain = 0
KBR1 182150Z 00022G27KT 13/M01 A2966 RMK A01 T01251014  RH  038%=      5-min Rain = 0
KBR1 182151Z 01027KT 13/M01 A2966 RMK A01 T01261013  RH  038%=      5-min Rain = 0
KBR1 182152Z 36026G32KT 12/M01 A2966 RMK A01 T01241014  RH  038%=      5-min Rain = 0
KBR1 182153Z 00028KT 12/M02 A2966 RMK A01 T01231016  RH  038%=      5-min Rain = 0
KBR1 182154Z 00024G31KT 12/M02 A2967 RMK A01 T01211015  RH  039%=      5-min Rain = 0
KBR1 182155Z 36030G37KT 12/M02 A2967 RMK A01 T01201016  RH  039%=      5-min Rain = 0
KBR1 182156Z 00031G37KT 12/M02 A2967 RMK A01 T01191018  RH  038%=      5-min Rain = 0
KBR1 182157Z 36032G37KT 12/M02 A2967 RMK A01 T01191017  RH  039%=      5-min Rain = 0
KBR1 182158Z 01030G37KT 12/M02 A2967 RMK A01 T01181018  RH  039%=      5-min Rain = 0
KBR1 182159Z 01028G34KT 12/M02 A2967 RMK A01 T01161018  RH  039%=      5-min Rain = 0
KBR1 182200Z 00029G34KT 12/M02 A2967 RMK A01 T01151017  RH  040%=      5-min Rain = 0
KBR1 182201Z 01029G34KT 11/M02 A2967 RMK A01 T01141018  RH  040%=      5-min Rain = 0
KBR1 182202Z 01029G36KT 11/M02 A2968 RMK A01 T01131020  RH  040%=      5-min Rain = 0
KBR1 182203Z 01027G33KT 11/M02 A2968 RMK A01 T01121019  RH  040%=      5-min Rain = 0
KBR1 182204Z 00029G39KT 11/M02 A2968 RMK A01 T01121018  RH  040%=      5-min Rain = 0
KBR1 182205Z 36030G35KT 11/M02 A2968 RMK A01 T01121017  RH  040%=      5-min Rain = 0
KBR1 182206Z 00031KT 11/M02 A2968 RMK A01 T01121018  RH  040%=      5-min Rain = 0
KBR1 182207Z 36026KT 11/M02 A2968 RMK A01 T01121018  RH  040%=      5-min Rain = 0
KBR1 182208Z 36025G31KT 11/M02 A2968 RMK A01 T01111018  RH  041%=      5-min Rain = 0
KBR1 182209Z 35029KT 11/M02 A2969 RMK A01 T01111019  RH  040%=      5-min Rain = 0
KBR1 182210Z 35030G38KT 11/M02 A2969 RMK A01 T01091020  RH  040%=      5-min Rain = 0
KBR1 182211Z 35032KT 11/M02 A2969 RMK A01 T01081021  RH  040%=      5-min Rain = 0
KBR1 182212Z 35027G33KT 11/M02 A2969 RMK A01 T01071021  RH  041%=      5-min Rain = 0
KBR1 182213Z 35030G38KT 11/M02 A297 RMK A01 T01071019  RH  041%=      5-min Rain = 0
KBR1 182214Z 35029G35KT 11/M02 A297 RMK A01 T01061019  RH  042%=      5-min Rain = 0
KBR1 182215Z 34029G34KT 11/M02 A297 RMK A01 T01051016  RH  043%=      5-min Rain = 0
KBR1 182216Z 34026G31KT 10/M01 A2971 RMK A01 T01011011  RH  046%=      5-min Rain = 0
KBR1 182217Z 34025G33KT 10/M01 A2971 RMK A01 T00961007  RH  049%=      5-min Rain = 0
KBR1 182218Z 34029G38KT 09/M01 A2971 RMK A01 T00931005  RH  050%=      5-min Rain = 0
KBR1 182219Z 34031KT 09/M01 A2971 RMK A01 T00911005  RH  051%=      5-min Rain = 0
KBR1 182220Z 34034G40KT 09/M01 A2971 RMK A01 T00891005  RH  052%=      5-min Rain = 0
KBR1 182221Z 34033G38KT 09/M01 A2971 RMK A01 T00891005  RH  052%=      5-min Rain = 0
KBR1 182222Z 34035KT 09/M01 A2972 RMK A01 T00871005  RH  052%=      5-min Rain = 0
KBR1 182223Z 34035G42KT 09/M00 A2972 RMK A01 T00861004  RH  053%=      5-min Rain = 0
KBR1 182224Z 34029G34KT 09/M00 A2972 RMK A01 T00861004  RH  053%=      5-min Rain = 0
KBR1 182225Z 34031KT 09/M00 A2972 RMK A01 T00851004  RH  054%=      5-min Rain = 0
KBR1 182226Z 34027G33KT 08/M00 A2972 RMK A01 T00841004  RH  054%=      5-min Rain = 0
KBR1 182227Z 34030G36KT 08/M01 A2972 RMK A01 T00841005  RH  054%=      5-min Rain = 0
KBR1 182228Z 34029KT 08/M01 A2972 RMK A01 T00831005  RH  054%=      5-min Rain = 0
KBR1 182229Z 34031G38KT 08/M01 A2973 RMK A01 T00821005  RH  054%=      5-min Rain = 0
KBR1 182230Z 34032G37KT 08/M00 A2973 RMK A01 T00811004  RH  055%=      5-min Rain = 0
KBR1 182231Z 34034G42KT 08/M01 A2973 RMK A01 T00801005  RH  055%=      5-min Rain = 0
KBR1 182232Z 34033G39KT 08/M00 A2973 RMK A01 T00791004  RH  055%=      5-min Rain = 0
KBR1 182233Z 34029KT 08/M00 A2973 RMK A01 T00791004  RH  056%=      5-min Rain = 0
KBR1 182234Z 34029G35KT 08/M00 A2973 RMK A01 T00781004  RH  056%=      5-min Rain = 0
KBR1 182235Z 34033G39KT 08/M00 A2974 RMK A01 T00781003  RH  057%=      5-min Rain = 0
KBR1 182236Z 34030G36KT 08/M00 A2974 RMK A01 T00771003  RH  057%=      5-min Rain = 0
KBR1 182237Z 34034G41KT 08/M00 A2974 RMK A01 T00771003  RH  057%=      5-min Rain = 0
KBR1 182238Z 34032G39KT 08/M00 A2974 RMK A01 T00761003  RH  057%=      5-min Rain = 0
KBR1 182239Z 34033G38KT 08/M00 A2974 RMK A01 T00761002  RH  058%=      5-min Rain = 0
KBR1 182240Z 34031G38KT 08/M00 A2974 RMK A01 T00761002  RH  058%=      5-min Rain = 0
KBR1 182241Z 34033G39KT 08/M00 A2974 RMK A01 T00751002  RH  058%=      5-min Rain = 0
KBR1 182242Z 34030G35KT 08/M00 A2974 RMK A01 T00751002  RH  058%=      5-min Rain = 0
KBR1 182243Z 34030G35KT 07/M00 A2974 RMK A01 T00741002  RH  058%=      5-min Rain = 0
KBR1 182244Z 35034G39KT 07/M00 A2974 RMK A01 T00741001  RH  059%=      5-min Rain = 0
KBR1 182245Z 35027KT 07/M00 A2974 RMK A01 T00741001  RH  059%=      5-min Rain = 0
KBR1 182246Z 34029G35KT 07/00 A2974 RMK A01 T007300-0  RH  060%=      5-min Rain = 0
KBR1 182247Z 34033G38KT 07/00 A2975 RMK A01 T00720002  RH  061%=      5-min Rain = 0
KBR1 182248Z 34030KT 07/00 A2974 RMK A01 T00700003  RH  062%=      5-min Rain = 0
KBR1 182249Z 35030G37KT 07/00 A2975 RMK A01 T00690004  RH  063%=      5-min Rain = 0
KBR1 182250Z 35027KT 07/01 A2975 RMK A01 T00670007  RH  065%=      5-min Rain = 0
KBR1 182251Z 35029G36KT 07/01 A2975 RMK A01 T00650012  RH  069%=      5-min Rain = 0
KBR1 182252Z 34029KT 06/02 A2975 RMK A01 T00610016  RH  073%=      5-min Rain = 0
KBR1 182253Z 35025G33KT 06/02 A2975 RMK A01 T00580019  RH  076%=      5-min Rain = 0
KBR1 182254Z 35032KT 06/02 A2975 RMK A01 T00560019  RH  077%=      5-min Rain = 0
KBR1 182255Z 34031G37KT 06/02 A2975 RMK A01 T00550019  RH  078%=      5-min Rain = 0
KBR1 182256Z 34030G36KT 05/02 A2976 RMK A01 T00540019  RH  079%=      5-min Rain = 0
KBR1 182257Z 34032G37KT 05/02 A2976 RMK A01 T00520021  RH  080%=      5-min Rain = 0
KBR1 182258Z 34028KT 05/02 A2976 RMK A01 T00510021  RH  081%=      5-min Rain = 0
KBR1 182259Z 34033G38KT 05/02 A2977 RMK A01 T00510023  RH  082%=      5-min Rain = 0
KBR1 182300Z 34030KT 05/02 A2977 RMK A01 T00500023  RH  082%=      5-min Rain = 0
KBR1 182301Z 34030KT 05/02 A2977 RMK A01 T00500024  RH  083%=      5-min Rain = 0
KBR1 182302Z 34027G32KT 05/03 A2977 RMK A01 T00490025  RH  084%=      5-min Rain = 0
KBR1 182303Z 33027G33KT 05/03 A2978 RMK A01 T00490025  RH  085%=      5-min Rain = 0
KBR1 182304Z 34033KT 05/03 A2978 RMK A01 T00480025  RH  085%=      5-min Rain = 0
KBR1 182305Z 34030G35KT 05/03 A2978 RMK A01 T00480025  RH  085%=      5-min Rain = 0
KBR1 182306Z 34030G35KT 05/03 A2978 RMK A01 T00470025  RH  086%=      5-min Rain = 0
KBR1 182307Z 34027G34KT 05/03 A2978 RMK A01 T00460025  RH  086%=      5-min Rain = 0
KBR1 182308Z 34032G40KT 05/03 A2978 RMK A01 T00460025  RH  086%=      5-min Rain = 0
KBR1 182309Z 34029G35KT 05/03 A2978 RMK A01 T00450025  RH  087%=      5-min Rain = 0
KBR1 182310Z 34026G36KT 04/03 A2978 RMK A01 T00440025  RH  087%=      5-min Rain = 0
KBR1 182311Z 34034KT 04/02 A2979 RMK A01 T00440024  RH  087%=      5-min Rain = 0.01
KBR1 182312Z 34029KT 04/02 A2979 RMK A01 T00440023  RH  087%=      5-min Rain = 0
KBR1 182313Z 34028G37KT 04/02 A2979 RMK A01 T00430024  RH  087%=      5-min Rain = 0
KBR1 182314Z 34028G35KT 04/03 A2979 RMK A01 T00420025  RH  088%=      5-min Rain = 0
KBR1 182315Z 34030G35KT 04/03 A2979 RMK A01 T00420025  RH  088%=      5-min Rain = 0
KBR1 182316Z 34024KT 04/02 A2979 RMK A01 T00420024  RH  088%=      5-min Rain = 0
KBR1 182317Z 34024G29KT 04/03 A2979 RMK A01 T00420025  RH  089%=      5-min Rain = 0
KBR1 182318Z 34023KT 04/03 A298 RMK A01 T00410026  RH  090%=      5-min Rain = 0.01
KBR1 182319Z 34024G29KT 04/03 A298 RMK A01 T00410025  RH  090%=      5-min Rain = 0
KBR1 182320Z 35030KT 04/03 A298 RMK A01 T00410025  RH  089%=      5-min Rain = 0
KBR1 182321Z 34028G35KT 04/02 A298 RMK A01 T00400023  RH  089%=      5-min Rain = 0.01
KBR1 182322Z 34025KT 04/02 A298 RMK A01 T00400024  RH  089%=      5-min Rain = 0
KBR1 182323Z 34024G31KT 04/03 A2981 RMK A01 T00400025  RH  090%=      5-min Rain = 0
KBR1 182324Z 33030G39KT 04/02 A2981 RMK A01 T00400024  RH  089%=      5-min Rain = 0
KBR1 182325Z 34029G35KT 04/02 A2981 RMK A01 T00400023  RH  089%=      5-min Rain = 0
KBR1 182326Z 34031G37KT 04/02 A2981 RMK A01 T00390022  RH  089%=      5-min Rain = 0.01
KBR1 182327Z 34032G41KT 04/02 A2981 RMK A01 T00390022  RH  089%=      5-min Rain = 0
KBR1 182328Z 34031G37KT 04/02 A2981 RMK A01 T00380021  RH  089%=      5-min Rain = 0
KBR1 182329Z 34032KT 04/02 A2981 RMK A01 T00370020  RH  088%=      5-min Rain = 0
KBR1 182330Z 35025KT 04/02 A2981 RMK A01 T00370020  RH  089%=      5-min Rain = 0
KBR1 182331Z 34028G33KT 04/02 A2981 RMK A01 T00360021  RH  090%=      5-min Rain = 0
KBR1 182332Z 34025G30KT 04/02 A2981 RMK A01 T00360021  RH  090%=      5-min Rain = 0
KBR1 182333Z 34022KT 04/02 A2981 RMK A01 T00360022  RH  091%=      5-min Rain = 0.01
KBR1 182334Z 34021G26KT 04/02 A2982 RMK A01 T00360023  RH  091%=      5-min Rain = 0
KBR1 182335Z 34022G27KT 04/02 A2982 RMK A01 T00360023  RH  092%=      5-min Rain = 0
KBR1 182336Z 34028G34KT 04/02 A2982 RMK A01 T00360022  RH  091%=      5-min Rain = 0
KBR1 182337Z 34027G34KT 04/02 A2982 RMK A01 T00360021  RH  090%=      5-min Rain = 0
KBR1 182338Z 34029KT 04/02 A2982 RMK A01 T00360020  RH  090%=      5-min Rain = 0
KBR1 182339Z 34025KT 04/02 A2982 RMK A01 T00350020  RH  089%=      5-min Rain = 0
KBR1 182340Z 34024KT 04/02 A2982 RMK A01 T00350020  RH  090%=      5-min Rain = 0
KBR1 182341Z 34022G28KT 03/02 A2982 RMK A01 T00340020  RH  090%=      5-min Rain = 0.01
KBR1 182342Z 34022KT 03/02 A2982 RMK A01 T00340021  RH  091%=      5-min Rain = 0
KBR1 182343Z 34023KT 03/02 A2982 RMK A01 T00340020  RH  091%=      5-min Rain = 0
KBR1 182344Z 34023KT 03/02 A2982 RMK A01 T00340020  RH  091%=      5-min Rain = 0
KBR1 182345Z 33020G27KT 03/02 A2982 RMK A01 T00340020  RH  091%=      5-min Rain = 0
KBR1 182346Z 34025G31KT 03/02 A2983 RMK A01 T00330019  RH  091%=      5-min Rain = 0
KBR1 182347Z 34029KT 03/02 A2983 RMK A01 T00320018  RH  090%=      5-min Rain = 0
KBR1 182348Z 34024G30KT 03/02 A2983 RMK A01 T00320017  RH  090%=      5-min Rain = 0.01
KBR1 182349Z 34024G30KT 03/02 A2983 RMK A01 T00310017  RH  090%=      5-min Rain = 0
KBR1 182350Z 34026KT 03/02 A2983 RMK A01 T00310017  RH  091%=      5-min Rain = 0
KBR1 182351Z 34026KT 03/02 A2983 RMK A01 T00310016  RH  090%=      5-min Rain = 0
KBR1 182352Z 34024KT 03/02 A2983 RMK A01 T00300016  RH  090%=      5-min Rain = 0
KBR1 182353Z 34026KT 03/02 A2983 RMK A01 T00300015  RH  090%=      5-min Rain = 0
KBR1 182354Z 34022KT 03/02 A2983 RMK A01 T00290015  RH  090%=      5-min Rain = 0
KBR1 182355Z 34023KT 03/02 A2983 RMK A01 T00290015  RH  091%=      5-min Rain = 0
KBR1 182356Z 34026G31KT 03/02 A2983 RMK A01 T00280016  RH  091%=      5-min Rain = 0
KBR1 182357Z 34026G31KT 03/01 A2983 RMK A01 T00280014  RH  091%=      5-min Rain = 0.01
KBR1 182358Z 34021KT 03/01 A2983 RMK A01 T00280014  RH  091%=      5-min Rain = 0
KBR1 182359Z 34026KT 03/02 A2983 RMK A01 T00280015  RH  091%=      5-min Rain = 0
KBR1 190000Z 34025G30KT 03/01 A2984 RMK A01 T00280014  RH  091%=      5-min Rain = 0
KBR1 190001Z 34024G30KT 03/02 A2984 RMK A01 T00280015  RH  091%=      5-min Rain = 0
KBR1 190002Z 34026G31KT 03/02 A2984 RMK A01 T00280015  RH  091%=      5-min Rain = 0
KBR1 190003Z 34026G34KT 03/02 A2984 RMK A01 T00280015  RH  091%=      5-min Rain = 0
KBR1 190004Z 34025KT 03/02 A2984 RMK A01 T00280015  RH  091%=      5-min Rain = 0
KBR1 190005Z 34027G32KT 03/01 A2984 RMK A01 T00280014  RH  091%=      5-min Rain = 0
KBR1 190006Z 34023KT 03/01 A2984 RMK A01 T00280014  RH  091%=      5-min Rain = 0
KBR1 190007Z 34021KT 03/02 A2984 RMK A01 T00280015  RH  091%=      5-min Rain = 0
KBR1 190008Z 34023KT 03/02 A2984 RMK A01 T00280016  RH  092%=      5-min Rain = 0.01
KBR1 190009Z 34023KT 03/02 A2984 RMK A01 T00270015  RH  091%=      5-min Rain = 0
KBR1 190010Z 35021G27KT 03/01 A2984 RMK A01 T00270014  RH  091%=      5-min Rain = 0
KBR1 190011Z 34018KT 03/02 A2984 RMK A01 T00280015  RH  092%=      5-min Rain = 0
KBR1 190012Z 34023KT 03/02 A2984 RMK A01 T00270015  RH  092%=      5-min Rain = 0
KBR1 190013Z 34022KT 03/01 A2984 RMK A01 T00270014  RH  091%=      5-min Rain = 0
KBR1 190014Z 35019G24KT 03/02 A2984 RMK A01 T00270015  RH  091%=      5-min Rain = 0
KBR1 190015Z 34021KT 03/02 A2984 RMK A01 T00270015  RH  092%=      5-min Rain = 0
KBR1 190016Z 35023KT 03/02 A2985 RMK A01 T00270015  RH  091%=      5-min Rain = 0
KBR1 190017Z 34024KT 03/02 A2985 RMK A01 T00270015  RH  091%=      5-min Rain = 0
KBR1 190018Z 34023KT 03/01 A2985 RMK A01 T00270014  RH  091%=      5-min Rain = 0
KBR1 190019Z 34022G28KT 03/01 A2985 RMK A01 T00280014  RH  091%=      5-min Rain = 0
KBR1 190020Z 34026KT 03/01 A2985 RMK A01 T00280014  RH  091%=      5-min Rain = 0
KBR1 190021Z 34023KT 03/01 A2985 RMK A01 T00280013  RH  090%=      5-min Rain = 0
KBR1 190022Z 35023KT 03/01 A2985 RMK A01 T00280014  RH  091%=      5-min Rain = 0
KBR1 190023Z 35024G30KT 03/01 A2985 RMK A01 T00270014  RH  091%=      5-min Rain = 0
KBR1 190024Z 34025G30KT 03/01 A2985 RMK A01 T00270014  RH  091%=      5-min Rain = 0.01
KBR1 190025Z 35029KT 03/01 A2985 RMK A01 T00270014  RH  091%=      5-min Rain = 0
KBR1 190026Z 35027G33KT 03/01 A2985 RMK A01 T00280013  RH  090%=      5-min Rain = 0
KBR1 190027Z 35021KT 03/01 A2985 RMK A01 T00280014  RH  090%=      5-min Rain = 0
KBR1 190028Z 35020KT 03/01 A2985 RMK A01 T00280014  RH  091%=      5-min Rain = 0
KBR1 190029Z 35022G27KT 03/01 A2986 RMK A01 T00280014  RH  091%=      5-min Rain = 0
KBR1 190030Z 35025KT 03/01 A2986 RMK A01 T00270014  RH  091%=      5-min Rain = 0
KBR1 190031Z 35021KT 03/01 A2986 RMK A01 T00280014  RH  091%=      5-min Rain = 0
KBR1 190032Z 34024KT 03/01 A2986 RMK A01 T00270014  RH  091%=      5-min Rain = 0
KBR1 190033Z 35024KT 03/01 A2986 RMK A01 T00270014  RH  091%=      5-min Rain = 0
KBR1 190034Z 35025G30KT 03/01 A2986 RMK A01 T00270013  RH  091%=      5-min Rain = 0
KBR1 190035Z 35026KT 03/01 A2986 RMK A01 T00270013  RH  090%=      5-min Rain = 0
KBR1 190036Z 35029KT 03/01 A2986 RMK A01 T00280013  RH  090%=      5-min Rain = 0
KBR1 190037Z 35024KT 03/01 A2986 RMK A01 T00270013  RH  090%=      5-min Rain = 0
KBR1 190038Z 35023G28KT 03/01 A2986 RMK A01 T00280014  RH  091%=      5-min Rain = 0
KBR1 190039Z 35024G31KT 03/01 A2986 RMK A01 T00280014  RH  091%=      5-min Rain = 0.01
KBR1 190040Z 35024G31KT 03/01 A2986 RMK A01 T00270014  RH  091%=      5-min Rain = 0
KBR1 190041Z 35020G28KT 03/02 A2986 RMK A01 T00270015  RH  091%=      5-min Rain = 0
KBR1 190042Z 35022G28KT 03/02 A2987 RMK A01 T00270015  RH  091%=      5-min Rain = 0
KBR1 190043Z 35026G31KT 03/02 A2987 RMK A01 T00280015  RH  091%=      5-min Rain = 0
KBR1 190044Z 35025KT 03/01 A2987 RMK A01 T00270014  RH  091%=      5-min Rain = 0
KBR1 190045Z 35025G31KT 03/01 A2987 RMK A01 T00270014  RH  091%=      5-min Rain = 0
KBR1 190046Z 35024KT 03/01 A2987 RMK A01 T00260013  RH  091%=      5-min Rain = 0
KBR1 190047Z 35026KT 03/01 A2987 RMK A01 T00260013  RH  091%=      5-min Rain = 0
KBR1 190048Z 36020KT 03/01 A2987 RMK A01 T00260013  RH  091%=      5-min Rain = 0
KBR1 190049Z 36025KT 03/01 A2987 RMK A01 T00260013  RH  091%=      5-min Rain = 0
KBR1 190050Z 00026KT 03/01 A2987 RMK A01 T00260012  RH  091%=      5-min Rain = 0
KBR1 190051Z 36020KT 03/01 A2987 RMK A01 T00260012  RH  091%=      5-min Rain = 0
KBR1 190052Z 35018KT 03/01 A2987 RMK A01 T00260013  RH  091%=      5-min Rain = 0
KBR1 190053Z 35019KT 03/01 A2987 RMK A01 T00260013  RH  092%=      5-min Rain = 0.01
KBR1 190054Z 36021KT 03/01 A2988 RMK A01 T00260013  RH  092%=      5-min Rain = 0
KBR1 190055Z 36019KT 03/01 A2988 RMK A01 T00260014  RH  092%=      5-min Rain = 0
KBR1 190056Z 36019KT 03/01 A2988 RMK A01 T00260014  RH  092%=      5-min Rain = 0
KBR1 190057Z 35020KT 03/01 A2988 RMK A01 T00260014  RH  092%=      5-min Rain = 0
KBR1 190058Z 35020KT 03/01 A2988 RMK A01 T00260014  RH  092%=      5-min Rain = 0
KBR1 190059Z 36019KT 03/02 A2988 RMK A01 T00270015  RH  092%=      5-min Rain = 0
KBR1 190100Z 35019G24KT 03/01 A2988 RMK A01 T00260014  RH  092%=      5-min Rain = 0
KBR1 190101Z 00021KT 03/02 A2988 RMK A01 T00270015  RH  092%=      5-min Rain = 0
KBR1 190102Z 35025KT 03/01 A2988 RMK A01 T00270014  RH  091%=      5-min Rain = 0
KBR1 190103Z 36023KT 03/01 A2988 RMK A01 T00270014  RH  091%=      5-min Rain = 0
KBR1 190104Z 35022KT 03/01 A2988 RMK A01 T00270014  RH  091%=      5-min Rain = 0
KBR1 190105Z 36020G25KT 03/01 A2989 RMK A01 T00270014  RH  091%=      5-min Rain = 0
KBR1 190106Z 35022KT 03/02 A2989 RMK A01 T00270015  RH  092%=      5-min Rain = 0
KBR1 190107Z 36021G26KT 03/02 A2989 RMK A01 T00270015  RH  091%=      5-min Rain = 0
KBR1 190108Z 36024KT 03/02 A2989 RMK A01 T00270015  RH  091%=      5-min Rain = 0
KBR1 190109Z 36023G29KT 03/01 A2989 RMK A01 T00270014  RH  091%=      5-min Rain = 0
KBR1 190110Z 35023G32KT 03/01 A2989 RMK A01 T00270014  RH  091%=      5-min Rain = 0
KBR1 190111Z 36022KT 03/01 A2989 RMK A01 T00280014  RH  091%=      5-min Rain = 0
KBR1 190112Z 00023KT 03/02 A299 RMK A01 T00280015  RH  091%=      5-min Rain = 0
KBR1 190113Z 35023KT 03/01 A299 RMK A01 T00270014  RH  091%=      5-min Rain = 0
KBR1 190114Z 36023KT 03/01 A299 RMK A01 T00270014  RH  091%=      5-min Rain = 0
KBR1 190115Z 36022G28KT 03/01 A299 RMK A01 T00270014  RH  091%=      5-min Rain = 0
KBR1 190116Z 36022KT 03/01 A299 RMK A01 T00270014  RH  091%=      5-min Rain = 0
KBR1 190117Z 35024KT 03/01 A299 RMK A01 T00270014  RH  091%=      5-min Rain = 0
KBR1 190118Z 00024KT 03/01 A299 RMK A01 T00270013  RH  091%=      5-min Rain = 0
KBR1 190119Z 35023KT 03/01 A299 RMK A01 T00270013  RH  090%=      5-min Rain = 0
KBR1 190120Z 36027KT 03/01 A299 RMK A01 T00270013  RH  090%=      5-min Rain = 0
KBR1 190121Z 36023G29KT 03/01 A2991 RMK A01 T00270013  RH  090%=      5-min Rain = 0
KBR1 190122Z 36019G24KT 03/01 A2991 RMK A01 T00270013  RH  091%=      5-min Rain = 0
KBR1 190123Z 36022KT 03/01 A2991 RMK A01 T00270013  RH  091%=      5-min Rain = 0
KBR1 190124Z 00022G29KT 03/01 A2991 RMK A01 T00270013  RH  091%=      5-min Rain = 0
KBR1 190125Z 35025G31KT 03/01 A2991 RMK A01 T00280013  RH  090%=      5-min Rain = 0
KBR1 190126Z 00024KT 03/01 A2991 RMK A01 T00280013  RH  090%=      5-min Rain = 0
KBR1 190127Z 00023KT 03/01 A2991 RMK A01 T00280012  RH  090%=      5-min Rain = 0
KBR1 190128Z 00023G28KT 03/01 A2991 RMK A01 T00280012  RH  090%=      5-min Rain = 0
KBR1 190129Z 00023KT 03/01 A2992 RMK A01 T00280013  RH  090%=      5-min Rain = 0
KBR1 190130Z 36020KT 03/01 A2992 RMK A01 T00280013  RH  090%=      5-min Rain = 0
KBR1 190131Z 00023G34KT 03/01 A2992 RMK A01 T00280013  RH  090%=      5-min Rain = 0
KBR1 190132Z 00023G28KT 03/01 A2992 RMK A01 T00280013  RH  090%=      5-min Rain = 0
KBR1 190133Z 00025G30KT 03/01 A2992 RMK A01 T00280011  RH  089%=      5-min Rain = 0
KBR1 190134Z 01033G39KT 03/01 A2992 RMK A01 T00270010  RH  088%=      5-min Rain = 0
KBR1 190135Z 00032G41KT 03/01 A2992 RMK A01 T00270006  RH  086%=      5-min Rain = 0
KBR1 190136Z 00030G36KT 03/01 A2993 RMK A01 T00270006  RH  086%=      5-min Rain = 0
KBR1 190137Z 36029G34KT 03/01 A2993 RMK A01 T00260006  RH  087%=      5-min Rain = 0
KBR1 190138Z 00030G35KT 03/01 A2993 RMK A01 T00250005  RH  087%=      5-min Rain = 0
KBR1 190139Z 01027G33KT 02/00 A2993 RMK A01 T00240004  RH  087%=      5-min Rain = 0
KBR1 190140Z 00024KT 02/01 A2993 RMK A01 T00230005  RH  088%=      5-min Rain = 0
KBR1 190141Z 00023KT 02/01 A2993 RMK A01 T00220006  RH  089%=      5-min Rain = 0
KBR1 190142Z 01025KT 02/01 A2993 RMK A01 T00220005  RH  089%=      5-min Rain = 0
KBR1 190143Z 01025G30KT 02/01 A2993 RMK A01 T00220005  RH  088%=      5-min Rain = 0
KBR1 190144Z 01026G32KT 02/00 A2993 RMK A01 T00220003  RH  087%=      5-min Rain = 0
KBR1 190145Z 01024KT 02/00 A2993 RMK A01 T00220002  RH  087%=      5-min Rain = 0
KBR1 190146Z 01024KT 02/00 A2993 RMK A01 T00220003  RH  087%=      5-min Rain = 0
KBR1 190147Z 01024G29KT 02/00 A2994 RMK A01 T00220002  RH  087%=      5-min Rain = 0
KBR1 190148Z 01021KT 02/00 A2994 RMK A01 T00210002  RH  087%=      5-min Rain = 0
KBR1 190149Z 01019G24KT 02/00 A2994 RMK A01 T00200002  RH  088%=      5-min Rain = 0
KBR1 190150Z 01021G28KT 02/00 A2994 RMK A01 T00200003  RH  088%=      5-min Rain = 0
KBR1 190151Z 01023G29KT 02/00 A2994 RMK A01 T00200002  RH  088%=      5-min Rain = 0
KBR1 190152Z 01022G27KT 02/00 A2994 RMK A01 T00200001  RH  087%=      5-min Rain = 0
KBR1 190153Z 01022G32KT 02/00 A2994 RMK A01 T00190000  RH  087%=      5-min Rain = 0
KBR1 190154Z 00026G31KT 02/00 A2994 RMK A01 T001900-0  RH  087%=      5-min Rain = 0
KBR1 190155Z 00025G30KT 02/M00 A2994 RMK A01 T00191001  RH  087%=      5-min Rain = 0
KBR1 190156Z 01023KT 02/M00 A2994 RMK A01 T00191001  RH  087%=      5-min Rain = 0
KBR1 190157Z 01023G29KT 02/00 A2995 RMK A01 T001800-0  RH  088%=      5-min Rain = 0
KBR1 190158Z 00023G29KT 02/M00 A2995 RMK A01 T00181001  RH  088%=      5-min Rain = 0
KBR1 190159Z 01022KT 02/00 A2995 RMK A01 T001800-0  RH  088%=      5-min Rain = 0
KBR1 190200Z 00023G28KT 02/00 A2995 RMK A01 T001700-0  RH  088%=      5-min Rain = 0
KBR1 190201Z 01022G28KT 02/00 A2995 RMK A01 T001800-0  RH  088%=      5-min Rain = 0
KBR1 190202Z 00025G30KT 02/00 A2995 RMK A01 T001800-0  RH  088%=      5-min Rain = 0
KBR1 190203Z 01022G29KT 02/00 A2995 RMK A01 T00170000  RH  088%=      5-min Rain = 0
KBR1 190204Z 00024KT 02/00 A2995 RMK A01 T00170000  RH  089%=      5-min Rain = 0
KBR1 190205Z 01022KT 02/00 A2995 RMK A01 T00170000  RH  088%=      5-min Rain = 0
KBR1 190206Z 01022KT 02/00 A2995 RMK A01 T001700-0  RH  088%=      5-min Rain = 0
KBR1 190207Z 01025G30KT 02/00 A2995 RMK A01 T001700-0  RH  088%=      5-min Rain = 0
KBR1 190208Z 01021KT 02/00 A2995 RMK A01 T00170000  RH  088%=      5-min Rain = 0
KBR1 190209Z 01023G30KT 02/00 A2996 RMK A01 T00180001  RH  088%=      5-min Rain = 0
KBR1 190210Z 00021KT 02/00 A2996 RMK A01 T00170000  RH  088%=      5-min Rain = 0
KBR1 190211Z 36020G25KT 02/00 A2996 RMK A01 T001700-0  RH  088%=      5-min Rain = 0
KBR1 190212Z 00026KT 02/00 A2996 RMK A01 T00170000  RH  088%=      5-min Rain = 0
KBR1 190213Z 01021G27KT 02/M00 A2996 RMK A01 T00171001  RH  088%=      5-min Rain = 0
KBR1 190214Z 00027KT 02/00 A2996 RMK A01 T00180000  RH  088%=      5-min Rain = 0
KBR1 190215Z 00022KT 02/00 A2996 RMK A01 T001800-0  RH  088%=      5-min Rain = 0
KBR1 190216Z 00021KT 02/00 A2996 RMK A01 T001800-0  RH  088%=      5-min Rain = 0
KBR1 190217Z 00025G30KT 02/00 A2997 RMK A01 T00180000  RH  088%=      5-min Rain = 0
KBR1 190218Z 00025KT 02/00 A2997 RMK A01 T001800-0  RH  088%=      5-min Rain = 0
KBR1 190219Z 00023G28KT 02/00 A2997 RMK A01 T001900-0  RH  087%=      5-min Rain = 0
KBR1 190220Z 01020KT 02/00 A2997 RMK A01 T00190001  RH  088%=      5-min Rain = 0
KBR1 190221Z 00021G27KT 02/00 A2997 RMK A01 T00190002  RH  088%=      5-min Rain = 0
KBR1 190222Z 36028G33KT 02/00 A2997 RMK A01 T00190000  RH  088%=      5-min Rain = 0
KBR1 190223Z 01025KT 02/M00 A2997 RMK A01 T00191001  RH  087%=      5-min Rain = 0
KBR1 190224Z 01028G34KT 02/M00 A2997 RMK A01 T00181002  RH  086%=      5-min Rain = 0
KBR1 190225Z 00031G36KT 02/M00 A2997 RMK A01 T00181004  RH  085%=      5-min Rain = 0
KBR1 190226Z 36030KT 02/M01 A2998 RMK A01 T00171006  RH  085%=      5-min Rain = 0
KBR1 190227Z 36027G37KT 02/M01 A2998 RMK A01 T00161007  RH  085%=      5-min Rain = 0
KBR1 190228Z 00029KT 02/M01 A2998 RMK A01 T00161007  RH  085%=      5-min Rain = 0
KBR1 190229Z 00027G32KT 02/M01 A2998 RMK A01 T00151007  RH  085%=      5-min Rain = 0
KBR1 190230Z 00028G34KT 02/M01 A2998 RMK A01 T00151007  RH  085%=      5-min Rain = 0
KBR1 190231Z 00027KT 01/M01 A2998 RMK A01 T00141008  RH  085%=      5-min Rain = 0
KBR1 190232Z 00026G31KT 01/M01 A2998 RMK A01 T00141008  RH  085%=      5-min Rain = 0
KBR1 190233Z 00029G34KT 01/M01 A2998 RMK A01 T00141008  RH  085%=      5-min Rain = 0
KBR1 190234Z 00027G32KT 01/M01 A2998 RMK A01 T00141009  RH  085%=      5-min Rain = 0
KBR1 190235Z 00029G35KT 01/M01 A2998 RMK A01 T00141008  RH  085%=      5-min Rain = 0
KBR1 190236Z 36028KT 01/M01 A2998 RMK A01 T00141009  RH  085%=      5-min Rain = 0
KBR1 190237Z 36031G38KT 01/M01 A2999 RMK A01 T00141009  RH  085%=      5-min Rain = 0
KBR1 190238Z 36030KT 01/M01 A2999 RMK A01 T00141009  RH  085%=      5-min Rain = 0
KBR1 190239Z 00032G38KT 01/M01 A2999 RMK A01 T00141009  RH  085%=      5-min Rain = 0
KBR1 190240Z 36028KT 01/M01 A2999 RMK A01 T00141009  RH  085%=      5-min Rain = 0
KBR1 190241Z 00025G31KT 01/M01 A2999 RMK A01 T00131009  RH  085%=      5-min Rain = 0
KBR1 190242Z 00027KT 01/M01 A2999 RMK A01 T00131009  RH  085%=      5-min Rain = 0
KBR1 190243Z 00027G34KT 01/M01 A2999 RMK A01 T00131009  RH  086%=      5-min Rain = 0
KBR1 190244Z 01028G35KT 01/M01 A2999 RMK A01 T00131009  RH  085%=      5-min Rain = 0
KBR1 190245Z 01025G31KT 01/M01 A2999 RMK A01 T00131008  RH  086%=      5-min Rain = 0
KBR1 190246Z 00024KT 01/M01 A2999 RMK A01 T00131008  RH  086%=      5-min Rain = 0
KBR1 190247Z 36026KT 01/M01 A2999 RMK A01 T00121008  RH  087%=      5-min Rain = 0
KBR1 190248Z 01019G25KT 01/M01 A30 RMK A01 T00121008  RH  086%=      5-min Rain = 0
KBR1 190249Z 01023G28KT 01/M01 A30 RMK A01 T00121007  RH  087%=      5-min Rain = 0
KBR1 190250Z 00024G29KT 01/M01 A30 RMK A01 T00111008  RH  087%=      5-min Rain = 0
KBR1 190251Z 00022KT 01/M01 A30 RMK A01 T00111007  RH  087%=      5-min Rain = 0
KBR1 190252Z 00022G27KT 01/M01 A30 RMK A01 T00121007  RH  087%=      5-min Rain = 0
KBR1 190253Z 36022G27KT 01/M01 A30 RMK A01 T00111008  RH  087%=      5-min Rain = 0
KBR1 190254Z 36026G31KT 01/M01 A30 RMK A01 T00111008  RH  087%=      5-min Rain = 0
KBR1 190255Z 01027KT 01/M01 A30 RMK A01 T00111009  RH  087%=      5-min Rain = 0
KBR1 190256Z 00026KT 01/M01 A30 RMK A01 T00111009  RH  086%=      5-min Rain = 0
KBR1 190257Z 36026G32KT 01/M01 A30 RMK A01 T00111009  RH  086%=      5-min Rain = 0
KBR1 190258Z 00025KT 01/M01 A30 RMK A01 T00111009  RH  086%=      5-min Rain = 0
KBR1 190259Z 00025G30KT 01/M01 A30 RMK A01 T00111009  RH  086%=      5-min Rain = 0
KBR1 190300Z 01028KT 01/M01 A3001 RMK A01 T00111010  RH  086%=      5-min Rain = 0
KBR1 190301Z 36030G35KT 01/M01 A3001 RMK A01 T00121011  RH  085%=      5-min Rain = 0
KBR1 190302Z 00030KT 01/M01 A3001 RMK A01 T00121012  RH  084%=      5-min Rain = 0
KBR1 190303Z 00031G37KT 01/M01 A3001 RMK A01 T00121012  RH  084%=      5-min Rain = 0
KBR1 190304Z 00028G37KT 01/M01 A3001 RMK A01 T00121012  RH  084%=      5-min Rain = 0
KBR1 190305Z 36027KT 01/M01 A3001 RMK A01 T00121012  RH  084%=      5-min Rain = 0
KBR1 190306Z 00028G33KT 01/M01 A3001 RMK A01 T00121011  RH  084%=      5-min Rain = 0
KBR1 190307Z 00029G35KT 01/M01 A3001 RMK A01 T00121011  RH  084%=      5-min Rain = 0
KBR1 190308Z 00027G32KT 01/M01 A3001 RMK A01 T00121011  RH  084%=      5-min Rain = 0
KBR1 190309Z 00023G28KT 01/M01 A3001 RMK A01 T00121011  RH  085%=      5-min Rain = 0
KBR1 190310Z 00026KT 01/M01 A3001 RMK A01 T00121011  RH  085%=      5-min Rain = 0
KBR1 190311Z 00024G30KT 01/M01 A3001 RMK A01 T00121010  RH  085%=      5-min Rain = 0
KBR1 190312Z 00027KT 01/M01 A3001 RMK A01 T00121010  RH  086%=      5-min Rain = 0
KBR1 190313Z 01023KT 01/M01 A3001 RMK A01 T00121011  RH  085%=      5-min Rain = 0
KBR1 190314Z 01021KT 01/M01 A3001 RMK A01 T00111011  RH  085%=      5-min Rain = 0
KBR1 190315Z 00020G26KT 01/M01 A3001 RMK A01 T00111010  RH  086%=      5-min Rain = 0
KBR1 190316Z 00022G27KT 01/M01 A3001 RMK A01 T00111010  RH  086%=      5-min Rain = 0
KBR1 190317Z 36022KT 01/M01 A3001 RMK A01 T00111010  RH  086%=      5-min Rain = 0
KBR1 190318Z 00023KT 01/M01 A3002 RMK A01 T00111010  RH  086%=      5-min Rain = 0
KBR1 190319Z 36022G27KT 01/M01 A3002 RMK A01 T00111010  RH  086%=      5-min Rain = 0
KBR1 190320Z 36024G29KT 01/M01 A3002 RMK A01 T00111010  RH  086%=      5-min Rain = 0
KBR1 190321Z 36027G34KT 01/M01 A3002 RMK A01 T00121010  RH  085%=      5-min Rain = 0
KBR1 190322Z 36029G34KT 01/M01 A3002 RMK A01 T00121011  RH  085%=      5-min Rain = 0
KBR1 190323Z 36029G35KT 01/M01 A3002 RMK A01 T00131012  RH  083%=      5-min Rain = 0
KBR1 190324Z 35032G38KT 01/M01 A3002 RMK A01 T00131013  RH  083%=      5-min Rain = 0
KBR1 190325Z 36027G33KT 01/M01 A3002 RMK A01 T00131014  RH  082%=      5-min Rain = 0
KBR1 190326Z 36028KT 01/M01 A3002 RMK A01 T00131014  RH  082%=      5-min Rain = 0
KBR1 190327Z 36029G35KT 01/M01 A3002 RMK A01 T00131014  RH  082%=      5-min Rain = 0
KBR1 190328Z 00025KT 01/M01 A3002 RMK A01 T00131013  RH  083%=      5-min Rain = 0
KBR1 190329Z 36025G32KT 01/M01 A3002 RMK A01 T00121013  RH  083%=      5-min Rain = 0
KBR1 190330Z 00031G36KT 01/M01 A3003 RMK A01 T00121014  RH  083%=      5-min Rain = 0
KBR1 190331Z 00027G33KT 01/M02 A3002 RMK A01 T00121015  RH  082%=      5-min Rain = 0
KBR1 190332Z 36027KT 01/M01 A3002 RMK A01 T00121014  RH  083%=      5-min Rain = 0
KBR1 190333Z 00024KT 01/M01 A3003 RMK A01 T00111014  RH  083%=      5-min Rain = 0
KBR1 190334Z 00029G36KT 01/M01 A3003 RMK A01 T00111014  RH  084%=      5-min Rain = 0
KBR1 190335Z 00028G34KT 01/M01 A3003 RMK A01 T00111014  RH  083%=      5-min Rain = 0
KBR1 190336Z 36029G35KT 01/M02 A3003 RMK A01 T00111015  RH  083%=      5-min Rain = 0
KBR1 190337Z 36028G34KT 01/M02 A3003 RMK A01 T00101016  RH  083%=      5-min Rain = 0
KBR1 190338Z 00028G33KT 01/M02 A3003 RMK A01 T00101016  RH  083%=      5-min Rain = 0
KBR1 190339Z 00029KT 01/M02 A3003 RMK A01 T00091016  RH  083%=      5-min Rain = 0
KBR1 190340Z 00025KT 01/M02 A3003 RMK A01 T00091016  RH  083%=      5-min Rain = 0
KBR1 190341Z 00029KT 01/M02 A3003 RMK A01 T00081016  RH  084%=      5-min Rain = 0
KBR1 190342Z 00028G33KT 01/M02 A3003 RMK A01 T00081017  RH  084%=      5-min Rain = 0
KBR1 190343Z 01026G32KT 01/M02 A3004 RMK A01 T00081017  RH  083%=      5-min Rain = 0
KBR1 190344Z 36022KT 01/M02 A3004 RMK A01 T00071017  RH  084%=      5-min Rain = 0
KBR1 190345Z 36025G32KT 01/M02 A3004 RMK A01 T00071017  RH  084%=      5-min Rain = 0
KBR1 190346Z 00027KT 01/M02 A3004 RMK A01 T00061018  RH  084%=      5-min Rain = 0
KBR1 190347Z 01030KT 01/M02 A3004 RMK A01 T00061020  RH  083%=      5-min Rain = 0
KBR1 190348Z 00028G33KT 01/M02 A3004 RMK A01 T00061020  RH  082%=      5-min Rain = 0
KBR1 190349Z 00025G32KT 01/M02 A3004 RMK A01 T00061021  RH  082%=      5-min Rain = 0
KBR1 190350Z 36027KT 01/M02 A3004 RMK A01 T00061021  RH  082%=      5-min Rain = 0
KBR1 190351Z 01026G32KT 01/M02 A3004 RMK A01 T00051022  RH  082%=      5-min Rain = 0
KBR1 190352Z 00030G37KT 01/M02 A3004 RMK A01 T00051023  RH  081%=      5-min Rain = 0
KBR1 190353Z 00028G35KT 01/M02 A3005 RMK A01 T00061023  RH  081%=      5-min Rain = 0
KBR1 190354Z 00029G34KT 01/M02 A3004 RMK A01 T00061024  RH  081%=      5-min Rain = 0
KBR1 190355Z 36033KT 01/M03 A3005 RMK A01 T00061025  RH  080%=      5-min Rain = 0
KBR1 190356Z 01026G32KT 01/M03 A3005 RMK A01 T00061026  RH  079%=      5-min Rain = 0
KBR1 190357Z 01026KT 01/M03 A3005 RMK A01 T00061025  RH  080%=      5-min Rain = 0
KBR1 190358Z 36026KT 01/M03 A3005 RMK A01 T00051025  RH  080%=      5-min Rain = 0
KBR1 190359Z 00027KT 01/M03 A3005 RMK A01 T00051025  RH  080%=      5-min Rain = 0
KBR1 190400Z 00021KT 01/M03 A3005 RMK A01 T00051025  RH  080%=      5-min Rain = 0
KBR1 190401Z 00024G29KT 00/M03 A3005 RMK A01 T00041025  RH  081%=      5-min Rain = 0
KBR1 190402Z 00025G30KT 00/M03 A3005 RMK A01 T00041026  RH  080%=      5-min Rain = 0
KBR1 190403Z 00022G30KT 00/M03 A3005 RMK A01 T00041026  RH  080%=      5-min Rain = 0
KBR1 190404Z 00024G30KT 00/M03 A3005 RMK A01 T00041026  RH  080%=      5-min Rain = 0
KBR1 190405Z 36024KT 00/M03 A3005 RMK A01 T00041026  RH  080%=      5-min Rain = 0
KBR1 190406Z 00026KT 00/M03 A3005 RMK A01 T00041026  RH  080%=      5-min Rain = 0
KBR1 190407Z 00025G30KT 00/M03 A3005 RMK A01 T00041026  RH  080%=      5-min Rain = 0
KBR1 190408Z 00027G33KT 01/M03 A3005 RMK A01 T00051026  RH  080%=      5-min Rain = 0
KBR1 190409Z 00024G32KT 01/M03 A3005 RMK A01 T00051026  RH  080%=      5-min Rain = 0
KBR1 190410Z 36026G33KT 01/M03 A3005 RMK A01 T00051026  RH  080%=      5-min Rain = 0
KBR1 190411Z 36025G32KT 01/M03 A3005 RMK A01 T00051026  RH  080%=      5-min Rain = 0
KBR1 190412Z 00022G27KT 01/M03 A3005 RMK A01 T00051026  RH  080%=      5-min Rain = 0
KBR1 190413Z 00022KT 00/M03 A3005 RMK A01 T00041025  RH  081%=      5-min Rain = 0
KBR1 190414Z 00021G27KT 00/M03 A3005 RMK A01 T00041025  RH  081%=      5-min Rain = 0
KBR1 190415Z 36022KT 00/M03 A3005 RMK A01 T00041025  RH  081%=      5-min Rain = 0
KBR1 190416Z 00021KT 00/M02 A3006 RMK A01 T00041024  RH  082%=      5-min Rain = 0
KBR1 190417Z 00019KT 00/M03 A3006 RMK A01 T00031025  RH  082%=      5-min Rain = 0
KBR1 190418Z 36017KT 00/M02 A3006 RMK A01 T00031024  RH  082%=      5-min Rain = 0
KBR1 190419Z 00020KT 00/M02 A3006 RMK A01 T00021024  RH  082%=      5-min Rain = 0
KBR1 190420Z 00020KT 00/M02 A3006 RMK A01 T00021024  RH  082%=      5-min Rain = 0
KBR1 190421Z 00018KT 00/M02 A3006 RMK A01 T00031024  RH  082%=      5-min Rain = 0
KBR1 190422Z 00018KT 00/M02 A3006 RMK A01 T00031024  RH  082%=      5-min Rain = 0
KBR1 190423Z 00019KT 00/M02 A3006 RMK A01 T00021024  RH  083%=      5-min Rain = 0
KBR1 190424Z 36018KT 00/M02 A3006 RMK A01 T00021023  RH  083%=      5-min Rain = 0
KBR1 190425Z 36018KT 00/M02 A3006 RMK A01 T00021023  RH  083%=      5-min Rain = 0
KBR1 190426Z 36019KT 00/M02 A3006 RMK A01 T00021024  RH  083%=      5-min Rain = 0
KBR1 190427Z 36019KT 00/M02 A3006 RMK A01 T00021024  RH  083%=      5-min Rain = 0
KBR1 190428Z 36017KT 00/M02 A3006 RMK A01 T00031024  RH  082%=      5-min Rain = 0
KBR1 190429Z 00017KT 00/M02 A3006 RMK A01 T00031024  RH  082%=      5-min Rain = 0
KBR1 190430Z 36018KT 00/M02 A3007 RMK A01 T00031024  RH  082%=      5-min Rain = 0
KBR1 190431Z 36019KT 00/M02 A3007 RMK A01 T00031024  RH  082%=      5-min Rain = 0
KBR1 190432Z 00017G22KT 00/M02 A3007 RMK A01 T00031024  RH  082%=      5-min Rain = 0
KBR1 190433Z 36019KT 00/M02 A3007 RMK A01 T00031024  RH  082%=      5-min Rain = 0
KBR1 190434Z 36016KT 00/M03 A3007 RMK A01 T00031025  RH  082%=      5-min Rain = 0
KBR1 190435Z 36016KT 00/M02 A3007 RMK A01 T00031024  RH  082%=      5-min Rain = 0
KBR1 190436Z 36017KT 00/M03 A3007 RMK A01 T00031025  RH  082%=      5-min Rain = 0
KBR1 190437Z 36018KT 00/M03 A3007 RMK A01 T00031025  RH  082%=      5-min Rain = 0
KBR1 190438Z 36016G21KT 00/M03 A3007 RMK A01 T00031026  RH  081%=      5-min Rain = 0
KBR1 190439Z 00016KT 00/M03 A3007 RMK A01 T00031025  RH  081%=      5-min Rain = 0
KBR1 190440Z 00015KT 00/M03 A3007 RMK A01 T00031025  RH  081%=      5-min Rain = 0
KBR1 190441Z 36016KT 00/M03 A3007 RMK A01 T00031025  RH  082%=      5-min Rain = 0
KBR1 190442Z 36015KT 00/M03 A3007 RMK A01 T00021025  RH  082%=      5-min Rain = 0
KBR1 190443Z 00014KT 00/M03 A3008 RMK A01 T00031025  RH  082%=      5-min Rain = 0
KBR1 190444Z 36015KT 00/M03 A3008 RMK A01 T00021025  RH  082%=      5-min Rain = 0
KBR1 190445Z 36014KT 00/M03 A3008 RMK A01 T00021025  RH  082%=      5-min Rain = 0
KBR1 190446Z 36015KT 00/M03 A3008 RMK A01 T00021025  RH  082%=      5-min Rain = 0
KBR1 190447Z 36014KT 00/M03 A3008 RMK A01 T00021026  RH  081%=      5-min Rain = 0
KBR1 190448Z 36015KT 00/M03 A3008 RMK A01 T00021026  RH  081%=      5-min Rain = 0
KBR1 190449Z 35019G24KT 00/M03 A3008 RMK A01 T00021026  RH  081%=      5-min Rain = 0
KBR1 190450Z 00016KT 00/M03 A3008 RMK A01 T00021028  RH  080%=      5-min Rain = 0
KBR1 190451Z 36017KT 00/M03 A3008 RMK A01 T00031027  RH  080%=      5-min Rain = 0
KBR1 190452Z 00019KT 00/M03 A3009 RMK A01 T00031028  RH  080%=      5-min Rain = 0
KBR1 190453Z 00015KT 00/M03 A3009 RMK A01 T00031028  RH  080%=      5-min Rain = 0
KBR1 190454Z 00017KT 00/M03 A3009 RMK A01 T00031028  RH  080%=      5-min Rain = 0
KBR1 190455Z 36015G20KT 00/M03 A3009 RMK A01 T00031028  RH  080%=      5-min Rain = 0
KBR1 190456Z 36019KT 00/M03 A3009 RMK A01 T00021028  RH  080%=      5-min Rain = 0
KBR1 190457Z 36018KT 00/M03 A3009 RMK A01 T00021029  RH  079%=      5-min Rain = 0
KBR1 190458Z 36018KT 00/M03 A3009 RMK A01 T00021029  RH  079%=      5-min Rain = 0
KBR1 190459Z 36017KT 00/M03 A3009 RMK A01 T00021029  RH  079%=      5-min Rain = 0
KBR1 190500Z 36016KT 00/M03 A3009 RMK A01 T00021029  RH  079%=      5-min Rain = 0
KBR1 190501Z 35018KT 00/M03 A3009 RMK A01 T00021029  RH  080%=      5-min Rain = 0
KBR1 190502Z 00016KT 00/M03 A3009 RMK A01 T00021029  RH  080%=      5-min Rain = 0
KBR1 190503Z 36013KT 00/M03 A301 RMK A01 T00021028  RH  080%=      5-min Rain = 0
KBR1 190504Z 36015KT 00/M03 A301 RMK A01 T00011028  RH  081%=      5-min Rain = 0
KBR1 190505Z 35014KT 00/M03 A301 RMK A01 T00011028  RH  081%=      5-min Rain = 0
KBR1 190506Z 00012KT 00/M03 A301 RMK A01 T00011028  RH  081%=      5-min Rain = 0
KBR1 190507Z 36013KT 00/03 A301 RMK A01 T00000-27  RH  082%=      5-min Rain = 0
KBR1 190508Z 35012KT 00/03 A301 RMK A01 T00-00-28  RH  082%=      5-min Rain = 0
KBR1 190509Z 36015KT 00/03 A301 RMK A01 T00-00-27  RH  082%=      5-min Rain = 0
KBR1 190510Z 36013KT 00/03 A301 RMK A01 T00-00-28  RH  082%=      5-min Rain = 0
KBR1 190511Z 36012KT 00/03 A301 RMK A01 T00000-27  RH  082%=      5-min Rain = 0
KBR1 190512Z 36013KT 00/03 A301 RMK A01 T00-00-28  RH  082%=      5-min Rain = 0
KBR1 190513Z 36012KT 00/03 A301 RMK A01 T00-00-28  RH  082%=      5-min Rain = 0
KBR1 190514Z 36011KT 00/03 A301 RMK A01 T00-00-28  RH  082%=      5-min Rain = 0
KBR1 190515Z 00012KT 00/03 A301 RMK A01 T00-00-27  RH  082%=      5-min Rain = 0
KBR1 190516Z 00013KT M00/M03 A3011 RMK A01 T10011027  RH  082%=      5-min Rain = 0
KBR1 190517Z 00011KT M00/M03 A301 RMK A01 T10011027  RH  082%=      5-min Rain = 0
KBR1 190518Z 00012KT M00/M03 A3011 RMK A01 T10011027  RH  082%=      5-min Rain = 0
KBR1 190519Z 01011KT M00/M03 A3011 RMK A01 T10011027  RH  083%=      5-min Rain = 0
KBR1 190520Z 36012KT M00/M03 A3011 RMK A01 T10011027  RH  083%=      5-min Rain = 0
KBR1 190521Z 00012KT M00/M03 A3011 RMK A01 T10011027  RH  082%=      5-min Rain = 0
KBR1 190522Z 00012KT M00/M03 A3011 RMK A01 T10011028  RH  082%=      5-min Rain = 0
KBR1 190523Z 00013KT M00/M03 A3011 RMK A01 T10011028  RH  082%=      5-min Rain = 0
KBR1 190524Z 01013KT M00/M03 A3011 RMK A01 T10011028  RH  082%=      5-min Rain = 0
KBR1 190525Z 00013KT 00/03 A3011 RMK A01 T00-00-28  RH  082%=      5-min Rain = 0
KBR1 190526Z 00012KT 00/03 A3011 RMK A01 T00000-28  RH  082%=      5-min Rain = 0
KBR1 190527Z 01014KT 00/03 A3011 RMK A01 T00000-28  RH  081%=      5-min Rain = 0
KBR1 190528Z 00015KT 00/03 A3011 RMK A01 T00-00-28  RH  081%=      5-min Rain = 0
KBR1 190529Z 36013KT 00/M03 A3011 RMK A01 T00011028  RH  081%=      5-min Rain = 0
KBR1 190530Z 00013KT 00/03 A3011 RMK A01 T00000-28  RH  081%=      5-min Rain = 0
KBR1 190531Z 00014KT 00/03 A3012 RMK A01 T00000-29  RH  081%=      5-min Rain = 0
KBR1 190532Z 00013KT 00/03 A3012 RMK A01 T00000-29  RH  081%=      5-min Rain = 0
KBR1 190533Z 00013KT 00/03 A3012 RMK A01 T00000-28  RH  081%=      5-min Rain = 0
KBR1 190534Z 00014KT 00/03 A3012 RMK A01 T00000-28  RH  081%=      5-min Rain = 0
KBR1 190535Z 36013KT 00/M03 A3012 RMK A01 T00011029  RH  081%=      5-min Rain = 0
KBR1 190536Z 36016KT 00/M03 A3012 RMK A01 T00011029  RH  080%=      5-min Rain = 0
KBR1 190537Z 00014KT 00/M03 A3012 RMK A01 T00011029  RH  080%=      5-min Rain = 0
KBR1 190538Z 36014KT 00/M03 A3012 RMK A01 T00021028  RH  080%=      5-min Rain = 0
KBR1 190539Z 36014KT 00/M03 A3012 RMK A01 T00021028  RH  080%=      5-min Rain = 0
KBR1 190540Z 36014KT 00/M03 A3012 RMK A01 T00021029  RH  080%=      5-min Rain = 0
KBR1 190541Z 00016KT 00/M03 A3012 RMK A01 T00021029  RH  080%=      5-min Rain = 0
KBR1 190542Z 36015KT 00/M03 A3012 RMK A01 T00031029  RH  079%=      5-min Rain = 0
KBR1 190543Z 00015KT 00/M03 A3012 RMK A01 T00031029  RH  079%=      5-min Rain = 0
KBR1 190544Z 01016KT 00/M03 A3012 RMK A01 T00031029  RH  079%=      5-min Rain = 0
KBR1 190545Z 36015KT 00/M03 A3013 RMK A01 T00031030  RH  079%=      5-min Rain = 0
KBR1 190546Z 36017KT 00/M03 A3013 RMK A01 T00031030  RH  079%=      5-min Rain = 0
KBR1 190547Z 00014KT 00/M03 A3013 RMK A01 T00041030  RH  078%=      5-min Rain = 0
KBR1 190548Z 36014G20KT 00/M03 A3013 RMK A01 T00041030  RH  078%=      5-min Rain = 0
KBR1 190549Z 00016KT 00/M03 A3013 RMK A01 T00041030  RH  078%=      5-min Rain = 0
KBR1 190550Z 00016KT 00/M03 A3013 RMK A01 T00041030  RH  078%=      5-min Rain = 0
KBR1 190551Z 00015KT 00/M03 A3013 RMK A01 T00041030  RH  078%=      5-min Rain = 0
KBR1 190552Z 00016KT 00/M03 A3013 RMK A01 T00041030  RH  078%=      5-min Rain = 0
KBR1 190553Z 00016KT 00/M03 A3013 RMK A01 T00041030  RH  078%=      5-min Rain = 0
KBR1 190554Z 00015KT 00/M03 A3013 RMK A01 T00041031  RH  078%=      5-min Rain = 0
KBR1 190555Z 36014KT 00/M03 A3013 RMK A01 T00041030  RH  078%=      5-min Rain = 0
KBR1 190556Z 36016KT 00/M03 A3013 RMK A01 T00041030  RH  078%=      5-min Rain = 0
KBR1 190557Z 36014KT 00/M03 A3013 RMK A01 T00041030  RH  078%=      5-min Rain = 0
KBR1 190558Z 00013KT 00/M03 A3013 RMK A01 T00041030  RH  078%=      5-min Rain = 0
KBR1 190559Z 36016KT 00/M03 A3013 RMK A01 T00031030  RH  078%=      5-min Rain = 0

Page generated in 0.1029 seconds.